January 31, 2023
Temp
 
52.7 °F
 
Dew Pt.
 
20.5 °F
 
Humidity
 
28%
 
Pressure
 
1013.4 hPa 
  rising slowly
Wind
 
0.0 mph 
    NNW
Rain
 
0.00 in 
  0.00 in/hr
UV index
 
---  
 
Solar rad.
 
100 W/m²
 
Tonight

Tonight: Clear, with a low around 42. Northeast wind around 5 mph.
Clear
Wednesday

Wednesday: Sunny, with a high near 65. Northeast wind 5 to 10 mph becoming southwest in the afternoon.
Sunny
Lo 42 °F Hi 65 °F
MAP MAG LOCAL DATETIME
y/m/d h:m:s
LAT
deg
LON
deg
DEPTH
km
LOCATION
map0.72023/01/31 22:20:4338.829N122.815W2.23 8 km ( 5 mi) NW of The Geysers, CA
map1.02023/01/31 21:55:4238.835N122.806W2.21 7 km ( 5 mi) W of Cobb, CA
map0.72023/01/31 21:47:4638.827N122.855W2.33 10 km ( 6 mi) WNW of The Geysers, CA
map0.82023/01/31 21:32:4938.170N117.861W7.5 56 km (35 mi) WNW of Tonopah, NV
map1.12023/01/31 21:21:0338.847N122.813W1.28 8 km ( 5 mi) WNW of Cobb, CA
map1.12023/01/31 21:09:1638.798N122.752W1.48 2 km ( 1 mi) N of The Geysers, CA
map1.22023/01/31 20:17:1933.116N115.595W10.68 8 km ( 5 mi) W of Calipatria, CA
map1.22023/01/31 19:58:2038.072N118.712W0.0 51 km (32 mi) S of Hawthorne, NV
map1.32023/01/31 19:49:4833.864N117.853W5.62 2 km ( 1 mi) ESE of Placentia, CA
map1.32023/01/31 19:21:4733.047N116.013W10.79 15 km (10 mi) SE of Ocotillo Wells, CA
map1.72023/01/31 19:06:5337.555N118.808W9.79 18 km (11 mi) ESE of Mammoth Lakes, CA
map1.32023/01/31 18:10:0633.889N116.258W5.42 14 km ( 9 mi) ENE of Thousand Palms, CA
map0.72023/01/31 17:56:1838.827N122.821W1.71 8 km ( 5 mi) NW of The Geysers, CA
map1.32023/01/31 17:48:3133.187N116.029W5.96 11 km ( 7 mi) ENE of Ocotillo Wells, CA
map0.92023/01/31 17:45:5237.474N118.841W1.95 22 km (14 mi) SE of Mammoth Lakes, CA
map1.12023/01/31 17:36:0539.321N123.307W1.35 11 km ( 7 mi) SSE of Willits, CA
map1.22023/01/31 17:28:2633.383N116.429W9.56 15 km ( 9 mi) NNW of Borrego Springs, CA
map1.52023/01/31 16:23:4140.215N124.132W11.88 28 km (18 mi) WNW of Redway, CA
map0.72023/01/31 16:21:1538.843N122.840W2.06 10 km ( 6 mi) NW of The Geysers, CA
map0.72023/01/31 16:01:2038.836N122.791W2.08 6 km ( 4 mi) WNW of Cobb, CA
map1.82023/01/31 15:35:5936.662N120.831W7.47 37 km (23 mi) SSW of South Dos Palos, CA
map0.62023/01/31 15:07:3333.555N116.691W12.4 2 km ( 1 mi) W of Anza, CA
map1.82023/01/31 14:52:5733.886N116.258W2.88 14 km ( 9 mi) ENE of Thousand Palms, CA
map1.12023/01/31 14:48:4936.464N121.029W7.77 25 km (16 mi) NE of Greenfield, CA
map0.82023/01/31 14:26:2435.613N120.830W6.1 13 km ( 8 mi) WNW of Templeton, CA
map2.12023/01/31 14:19:2533.888N116.258W2.7 14 km ( 9 mi) ENE of Thousand Palms, CA
map1.32023/01/31 14:15:2234.171N117.902W3.66 4 km ( 3 mi) N of Azusa, CA
map0.32023/01/31 13:59:2238.149N117.941W12.4 63 km (39 mi) W of Tonopah, NV
map1.62023/01/31 13:49:1333.851N116.876W11.99 8 km ( 5 mi) S of Banning, CA
map0.32023/01/31 13:41:5838.780N122.764W1.5 1 km ( 0 mi) WNW of The Geysers, CA
map2.72023/01/31 13:41:1537.475N118.840W3.99 22 km (14 mi) SE of Mammoth Lakes, CA
map0.02023/01/31 13:33:4636.631N117.093W10.2 6 km ( 4 mi) ENE of Stovepipe Wells, CA
map1.42023/01/31 13:29:3735.687N117.513W6.74 13 km ( 8 mi) SW of Searles Valley, CA
map1.62023/01/31 13:29:1433.884N116.259W3 14 km ( 9 mi) ENE of Thousand Palms, CA
map1.42023/01/31 13:28:0935.722N117.564W8.46 15 km ( 9 mi) NE of Ridgecrest, CA
map2.12023/01/31 13:07:3232.781N115.544W10.33 2 km ( 1 mi) ESE of El Centro, CA
map1.22023/01/31 13:04:1236.014N120.572W2.75 18 km (11 mi) NW of Parkfield, CA
map1.52023/01/31 12:53:5538.796N122.754W1.2 2 km ( 1 mi) N of The Geysers, CA
map1.62023/01/31 12:38:4038.832N122.815W1.72 8 km ( 5 mi) NW of The Geysers, CA
map0.72023/01/31 12:32:2438.833N122.816W1.58 8 km ( 5 mi) NW of The Geysers, CA
map1.92023/01/31 12:16:1237.334N122.201W9.05 6 km ( 4 mi) SSE of Portola Valley, CA
map1.72023/01/31 12:13:1232.791N115.564W3.36 1 km ( 0 mi) WNW of El Centro, CA
map1.12023/01/31 12:06:4734.915N119.571W7.29 22 km (14 mi) SW of Maricopa, CA
map0.92023/01/31 11:58:0538.828N122.852W1.37 10 km ( 6 mi) NW of The Geysers, CA
map1.72023/01/31 11:51:2333.868N117.813W3.21 2 km ( 1 mi) S of Yorba Linda, CA
map1.22023/01/31 11:41:2036.263N120.842W7.29 26 km (16 mi) ENE of King City, CA
map1.32023/01/31 11:05:2533.017N116.426W5.79 18 km (11 mi) ESE of Julian, CA
map1.32023/01/31 11:04:2638.800N122.753W2.14 3 km ( 2 mi) N of The Geysers, CA
map1.32023/01/31 11:02:2738.885N118.055W7.4 63 km (39 mi) NE of Hawthorne, NV
map1.12023/01/31 10:42:3338.778N122.740W1.21 1 km ( 1 mi) E of The Geysers, CA
map0.62023/01/31 09:42:2538.826N122.855W2.51 10 km ( 6 mi) WNW of The Geysers, CA
map1.32023/01/31 09:24:5637.335N122.202W8.86 6 km ( 4 mi) SSE of Portola Valley, CA
map1.82023/01/31 08:56:2338.826N122.855W2.55 10 km ( 6 mi) WNW of The Geysers, CA
map0.82023/01/31 08:46:5337.666N122.506W8.24 3 km ( 2 mi) SW of Broadmoor, CA
map0.82023/01/31 07:50:4938.815N122.828W2.12 8 km ( 5 mi) NW of The Geysers, CA
map1.42023/01/31 07:34:5537.461N118.842W2.2 23 km (14 mi) SSE of Mammoth Lakes, CA
map1.12023/01/31 07:20:3138.832N122.877W2.68 12 km ( 8 mi) WNW of The Geysers, CA
map1.12023/01/31 07:01:0533.329N116.847W10.1 3 km ( 2 mi) SSE of Palomar Observatory, CA
map2.12023/01/31 06:47:3337.462N118.855W2.03 22 km (14 mi) SSE of Mammoth Lakes, CA
map0.72023/01/31 06:40:0437.525N118.851W2.04 17 km (10 mi) SE of Mammoth Lakes, CA
map1.22023/01/31 06:36:3137.487N118.857W3.65 20 km (12 mi) SSE of Mammoth Lakes, CA
map1.32023/01/31 06:17:2538.805N122.781W1.77 4 km ( 2 mi) NW of The Geysers, CA
map0.72023/01/31 05:46:4138.849N122.817W1.89 9 km ( 5 mi) WNW of Cobb, CA
map1.22023/01/31 05:03:0140.201N119.818W3.4 60 km (37 mi) NNE of Cold Springs, NV
map0.72023/01/31 05:02:3937.142N116.773W0.0 26 km (16 mi) N of Beatty, NV
map0.82023/01/31 05:02:3138.836N122.799W1.81 7 km ( 4 mi) WNW of Cobb, CA
map2.22023/01/31 04:56:2033.290N116.755W4.68 5 km ( 3 mi) N of Lake Henshaw, CA
map1.02023/01/31 04:54:3538.814N122.805W2.41 6 km ( 4 mi) NW of The Geysers, CA
map1.22023/01/31 04:33:1735.905N117.741W8.73 15 km (10 mi) ESE of Little Lake, CA
map1.12023/01/31 04:30:4834.059N117.260W17.63 1 km ( 1 mi) N of Loma Linda, CA
map0.82023/01/31 04:27:1233.413N116.388W0.83 17 km (11 mi) N of Borrego Springs, CA
map1.72023/01/31 03:54:4035.504N118.395W5.41 13 km ( 8 mi) SE of Bodfish, CA
map0.72023/01/31 03:39:4738.811N122.830W1.21 7 km ( 5 mi) WNW of The Geysers, CA
map0.92023/01/31 03:20:0834.025N116.856W18.61 11 km ( 7 mi) N of Banning, CA
map0.92023/01/31 03:15:2538.186N117.960W0.0 65 km (40 mi) WNW of Tonopah, NV
map1.52023/01/31 03:11:0932.905N115.584W11.51 7 km ( 4 mi) NNW of Imperial, CA
map1.42023/01/31 02:45:4538.795N122.762W2.73 2 km ( 1 mi) NNW of The Geysers, CA
map1.62023/01/31 02:36:1734.044N117.247W15.94 1 km ( 1 mi) ESE of Loma Linda, CA
map1.82023/01/31 02:15:5034.181N119.451W9.06 18 km (11 mi) NNE of Santa Cruz Is. (E end), CA
map1.02023/01/31 01:16:1233.740N116.210W7.1 2 km ( 1 mi) NNE of Indio, CA
map1.92023/01/31 01:01:4033.181N115.612W1.67 11 km ( 7 mi) SW of Niland, CA
map1.22023/01/31 00:26:3833.883N116.573W10.96 3 km ( 2 mi) SW of Garnet, CA
map1.02023/01/31 00:11:3838.790N122.745W0.91 2 km ( 1 mi) NE of The Geysers, CA
map0.62023/01/30 23:19:3934.465N117.964W8.49 6 km ( 4 mi) SSE of Littlerock, CA
map0.72023/01/30 23:19:2838.834N122.793W2 6 km ( 4 mi) WNW of Cobb, CA
map2.12023/01/30 23:13:4335.502N118.395W4.63 13 km ( 8 mi) SE of Bodfish, CA
map-0.12023/01/30 22:53:2038.300N118.601W6.8 25 km (16 mi) S of Hawthorne, NV
map1.32023/01/30 22:37:3338.778N122.783W3.43 2 km ( 1 mi) W of The Geysers, CA
map1.92023/01/30 21:45:5838.822N122.853W2.74 10 km ( 6 mi) WNW of The Geysers, CA
map1.32023/01/30 21:23:3533.402N116.391W3.15 16 km (10 mi) N of Borrego Springs, CA
map0.82023/01/30 21:00:1438.795N122.766W4.01 2 km ( 1 mi) NNW of The Geysers, CA
map1.62023/01/30 20:22:5436.038N121.514W8.16 40 km (25 mi) WSW of King City, CA
map0.92023/01/30 19:01:5738.826N122.797W1.15 6 km ( 4 mi) NW of The Geysers, CA
map0.32023/01/30 18:37:0038.834N122.819W2.08 8 km ( 5 mi) NW of The Geysers, CA
map1.72023/01/30 18:33:0633.789N116.119W1.53 12 km ( 7 mi) NE of Indio, CA
map2.22023/01/30 18:33:0135.998N117.413W1.36 26 km (16 mi) N of Searles Valley, CA
map-0.12023/01/30 18:16:4036.972N116.008W7.1 67 km (41 mi) E of Beatty, NV
map0.72023/01/30 17:41:2438.847N122.816W1.68 9 km ( 5 mi) WNW of Cobb, CA
map0.22023/01/30 17:26:5537.513N118.870W1.34 17 km (10 mi) SE of Mammoth Lakes, CA
map-0.22023/01/30 17:20:3340.076N119.708W15.7 47 km (29 mi) N of Spanish Springs, NV
map1.32023/01/30 16:33:3235.906N117.740W7.58 15 km (10 mi) ESE of Little Lake, CA
map1.72023/01/30 16:28:3738.526N119.541W6.4 33 km (21 mi) SSW of Smith Valley, NV
map1.82023/01/30 16:27:3935.048N117.665W0.29 2 km ( 2 mi) NE of Quarry at BORON (Probable quarry explosion)
map0.92023/01/30 14:44:4137.469N118.876W2.92 21 km (13 mi) SSE of Mammoth Lakes, CA
map0.92023/01/30 14:15:4538.805N122.820W2.72 6 km ( 4 mi) WNW of The Geysers, CA
map2.32023/01/30 14:15:2038.069N118.785W2.6 51 km (32 mi) NNE of Mammoth Lakes, CA
map0.82023/01/30 14:09:2733.888N116.258W4.34 14 km ( 9 mi) ENE of Thousand Palms, CA
map1.02023/01/30 13:48:2538.835N122.807W2.05 7 km ( 5 mi) W of Cobb, CA
map1.32023/01/30 13:42:1132.596N117.003W-0.34 3 km ( 2 mi) WSW of Quarry at SYS-1 (Probable quarry explosion)
map0.92023/01/30 13:28:2638.768N122.735W-0.82 2 km ( 1 mi) ESE of The Geysers, CA
map1.82023/01/30 13:28:0938.773N122.739W0.6 2 km ( 1 mi) ESE of The Geysers, CA
map0.82023/01/30 13:15:1338.160N118.238W14.4 53 km (33 mi) SE of Hawthorne, NV
map1.12023/01/30 13:09:2938.815N122.819W2.65 7 km ( 4 mi) NW of The Geysers, CA
map1.02023/01/30 13:03:5538.843N122.817W1.49 8 km ( 5 mi) WNW of Cobb, CA
map0.82023/01/30 13:00:0738.158N118.246W12.0 52 km (33 mi) SE of Hawthorne, NV
map0.72023/01/30 12:39:1938.814N122.798W1.81 5 km ( 3 mi) NW of The Geysers, CA
map1.62023/01/30 12:33:0533.567N116.637W16.03 4 km ( 2 mi) ENE of Anza, CA
map0.32023/01/30 12:09:3633.669N116.724W13.44 8 km ( 5 mi) S of Idyllwild, CA
map1.02023/01/30 12:09:3533.889N116.258W4.05 14 km ( 9 mi) ENE of Thousand Palms, CA
map1.42023/01/30 11:57:1934.994N118.190W-0.8 3 km ( 2 mi) SW of Quarry at TPO-DBM (Probable quarry explosion)
map0.82023/01/30 11:51:3133.882N116.258W2.8 14 km ( 9 mi) ENE of Thousand Palms, CA
map1.52023/01/30 11:40:4038.815N122.794W2.13 5 km ( 3 mi) NW of The Geysers, CA
map0.82023/01/30 11:20:1738.813N122.827W1.81 7 km ( 5 mi) WNW of The Geysers, CA
map0.92023/01/30 11:07:3239.239N120.087W6.8 3 km ( 2 mi) W of Tahoe Vista, CA
map0.82023/01/30 10:52:2333.267N116.419W4.45 4 km ( 3 mi) WNW of Borrego Springs, CA
map2.22023/01/30 10:49:3137.290N121.660W6.07 16 km (10 mi) E of Seven Trees, CA
map1.02023/01/30 10:48:3138.829N122.801W1.84 7 km ( 4 mi) W of Cobb, CA
map1.02023/01/30 10:43:5634.212N117.668W14.08 13 km ( 8 mi) NW of Rancho Cucamonga, CA
map0.72023/01/30 10:08:4133.265N116.414W4.88 4 km ( 2 mi) WNW of Borrego Springs, CA
map2.02023/01/30 10:02:4536.452N121.012W0.46 25 km (16 mi) NE of Greenfield, CA
map1.52023/01/30 09:45:0433.715N117.334W-0.5 21 km (13 mi) NE of Quarry at ELS (Probable quarry explosion)
map0.72023/01/30 09:28:0533.505N116.504W14.4 17 km (10 mi) ESE of Anza, CA
map0.72023/01/30 09:23:4838.837N122.807W1.79 7 km ( 5 mi) WNW of Cobb, CA
map0.32023/01/30 09:09:2138.796N122.760W0.41 2 km ( 1 mi) N of The Geysers, CA
map0.32023/01/30 09:09:1338.762N122.725W1.88 3 km ( 2 mi) ESE of The Geysers, CA
map0.32023/01/30 08:36:5738.828N122.793W1.82 6 km ( 4 mi) W of Cobb, CA
map0.82023/01/30 08:32:2736.607N121.175W5.73 24 km (15 mi) NE of Soledad, CA
map1.42023/01/30 07:39:1237.670N122.373W10.04 3 km ( 2 mi) ESE of Brisbane, CA
map0.82023/01/30 07:20:0838.829N122.789W1.35 6 km ( 4 mi) W of Cobb, CA
map2.12023/01/30 07:20:0740.553N124.216W19.19 5 km ( 3 mi) ESE of Ferndale, CA
map1.52023/01/30 07:16:1636.008N120.962W10.11 27 km (17 mi) SSE of King City, CA
map0.72023/01/30 07:07:5038.818N122.822W-0.73 7 km ( 5 mi) NW of The Geysers, CA
map1.22023/01/30 06:50:0238.827N122.803W1.71 7 km ( 4 mi) NW of The Geysers, CA
map0.82023/01/30 06:06:4533.500N116.501W14.71 17 km (11 mi) ESE of Anza, CA
map0.52023/01/30 05:49:1033.477N116.497W13.51 18 km (11 mi) ESE of Anza, CA
map1.32023/01/30 05:42:5237.800N122.187W4.11 4 km ( 2 mi) E of Oakland, CA
map1.22023/01/30 05:19:2933.473N116.504W13.45 18 km (11 mi) ESE of Anza, CA
map0.52023/01/30 05:10:4138.837N122.769W1.97 4 km ( 3 mi) WNW of Cobb, CA
map2.22023/01/30 04:55:5734.189N119.448W10.69 19 km (12 mi) NNE of Santa Cruz Is. (E end), CA
map0.72023/01/30 04:38:3633.384N116.874W8.93 3 km ( 2 mi) NNW of Palomar Observatory, CA
map1.52023/01/30 04:16:1334.212N119.455W10.25 21 km (13 mi) NNE of Santa Cruz Is. (E end), CA
map1.52023/01/30 04:15:3534.178N119.452W2.78 17 km (11 mi) NNE of Santa Cruz Is. (E end), CA
map1.82023/01/30 04:12:3134.190N119.447W1.81 19 km (12 mi) NNE of Santa Cruz Is. (E end), CA
map1.72023/01/30 04:10:1534.176N119.461W0.91 17 km (10 mi) NNE of Santa Cruz Is. (E end), CA
map1.62023/01/30 04:05:2934.171N119.454W9.75 17 km (10 mi) NNE of Santa Cruz Is. (E end), CA
map1.12023/01/30 03:50:2034.136N117.339W25.52 2 km ( 1 mi) SSE of Muscoy, CA
map1.72023/01/30 03:45:1034.124N119.429W5.82 13 km ( 8 mi) NE of Santa Cruz Is. (E end), CA
map0.42023/01/30 03:41:4737.629N118.855W5.57 11 km ( 7 mi) E of Mammoth Lakes, CA
map1.32023/01/30 03:24:2337.594N121.873W8.8 8 km ( 5 mi) S of Pleasanton, CA
map0.72023/01/30 03:20:4138.844N122.826W1.78 9 km ( 6 mi) WNW of Cobb, CA
map1.22023/01/30 03:04:0235.712N117.527W11.86 13 km ( 8 mi) WSW of Searles Valley, CA
map0.72023/01/30 02:58:4033.574N116.714W16.72 4 km ( 3 mi) WNW of Anza, CA
map1.12023/01/30 02:54:3238.835N122.816W1.67 8 km ( 5 mi) W of Cobb, CA
map0.12023/01/30 02:50:5433.596N116.802W5.89 13 km ( 8 mi) WNW of Anza, CA
map0.62023/01/30 02:42:3538.824N122.765W2.09 4 km ( 2 mi) W of Cobb, CA
map0.62023/01/30 02:17:2734.003N116.616W15.31 6 km ( 4 mi) SW of Morongo Valley, CA
map0.42023/01/30 02:07:2933.474N116.872W11.86 3 km ( 2 mi) N of Aguanga, CA
map1.92023/01/30 01:39:1537.623N118.849W6.53 12 km ( 7 mi) E of Mammoth Lakes, CA
map1.82023/01/30 01:25:2339.653N123.040W4.48 24 km (15 mi) SE of Covelo, CA
map1.12023/01/30 00:58:5038.815N122.796W2.19 5 km ( 3 mi) NW of The Geysers, CA
map0.52023/01/30 00:55:3133.592N116.809W6.55 13 km ( 8 mi) WNW of Anza, CA
map0.22023/01/30 00:54:4333.514N116.547W11.68 13 km ( 8 mi) ESE of Anza, CA
map1.22023/01/30 00:36:4038.843N122.826W-0.65 9 km ( 6 mi) WNW of Cobb, CA
map1.12023/01/30 00:36:3235.873N117.700W11.1 20 km (12 mi) ESE of Little Lake, CA
map1.32023/01/30 00:35:0633.584N116.812W6.35 13 km ( 8 mi) WNW of Anza, CA
map0.72023/01/30 00:25:3832.913N116.242W8.47 28 km (17 mi) SSW of Ocotillo Wells, CA
map1.02023/01/30 00:21:2238.847N122.816W1.58 8 km ( 5 mi) WNW of Cobb, CA
map1.22023/01/30 00:04:2837.596N121.611W-0.48 17 km (10 mi) SE of Livermore, CA
map1.12023/01/29 23:48:2438.829N122.814W1.71 8 km ( 5 mi) NW of The Geysers, CA
map0.92023/01/29 23:12:3839.443N119.764W4.3 10 km ( 6 mi) S of Sparks, NV
map0.82023/01/29 23:08:3138.388N118.280W9.0 34 km (21 mi) ESE of Hawthorne, NV
map0.22023/01/29 22:49:0336.848N116.258W10.4 45 km (28 mi) E of Beatty, NV
map1.52023/01/29 22:38:3736.670N121.264W3.28 18 km (11 mi) SSE of Ridgemark, CA
map0.72023/01/29 22:15:4238.836N122.878W2.64 12 km ( 8 mi) WNW of The Geysers, CA
map0.22023/01/29 22:04:2738.800N122.811W2.18 5 km ( 3 mi) WNW of The Geysers, CA
map1.42023/01/29 22:02:1933.971N116.900W17.6 6 km ( 3 mi) NNW of Banning, CA
map0.62023/01/29 22:01:2238.842N122.823W0.85 9 km ( 6 mi) WNW of Cobb, CA
map0.22023/01/29 21:53:0633.529N116.727W4.64 6 km ( 4 mi) WSW of Anza, CA
map0.62023/01/29 21:06:1433.475N116.449W13.71 23 km (14 mi) ESE of Anza, CA
map0.72023/01/29 21:00:3438.836N122.800W2.25 7 km ( 4 mi) WNW of Cobb, CA
map-0.22023/01/29 20:56:1036.849N116.258W10.0 45 km (28 mi) E of Beatty, NV
map0.52023/01/29 20:54:4133.583N116.611W14.24 7 km ( 4 mi) ENE of Anza, CA
map-0.52023/01/29 20:54:3536.848N116.256W9.8 45 km (28 mi) E of Beatty, NV
map0.72023/01/29 20:47:3036.846N116.262W9.7 44 km (28 mi) E of Beatty, NV
map0.22023/01/29 20:41:1833.583N116.610W13.91 7 km ( 4 mi) ENE of Anza, CA
map0.52023/01/29 20:41:0138.837N122.799W2.09 7 km ( 4 mi) WNW of Cobb, CA
map0.72023/01/29 20:34:5738.789N122.760W1.84 1 km ( 1 mi) NNW of The Geysers, CA
map0.72023/01/29 20:28:3333.825N116.995W12.72 6 km ( 4 mi) NW of San Jacinto, CA
map0.92023/01/29 20:03:1938.837N122.782W2 5 km ( 3 mi) WNW of Cobb, CA
map-0.12023/01/29 20:03:0038.834N122.806W1.74 7 km ( 5 mi) W of Cobb, CA
map0.12023/01/29 19:57:1438.806N122.816W3.39 6 km ( 4 mi) WNW of The Geysers, CA
map0.52023/01/29 19:51:1934.857N118.980W-1.78 5 km ( 3 mi) NW of Frazier Park, CA
map1.82023/01/29 19:49:5137.972N122.062W13.76 2 km ( 1 mi) SE of Pacheco, CA
map0.62023/01/29 19:09:1138.809N122.782W4.03 4 km ( 3 mi) NNW of The Geysers, CA
map1.12023/01/29 19:08:2538.806N122.816W3.13 6 km ( 4 mi) WNW of The Geysers, CA
map1.02023/01/29 18:54:5135.510N118.395W4.34 12 km ( 8 mi) SE of Bodfish, CA
map1.12023/01/29 18:48:2740.076N121.013W0.0 9 km ( 6 mi) SW of Greenville, CA
map0.22023/01/29 18:36:1037.559N118.838W4.25 15 km ( 9 mi) SE of Mammoth Lakes, CA
map1.12023/01/29 18:18:1638.813N122.830W1.5 8 km ( 5 mi) WNW of The Geysers, CA
map1.82023/01/29 18:12:1736.837N121.570W6.06 3 km ( 2 mi) WSW of San Juan Bautista, CA
map1.92023/01/29 17:56:4335.033N117.680W-0.82 0 km ( 0 mi) N of Quarry at BORON (Probable quarry explosion)
map1.12023/01/29 17:39:3336.707N121.108W3.76 26 km (16 mi) ESE of Ridgemark, CA
map2.12023/01/29 17:34:1639.680N119.418W12.2 16 km (10 mi) WNW of Fernley, NV
map1.42023/01/29 17:27:5038.815N122.773W0.24 4 km ( 3 mi) NNW of The Geysers, CA
map1.02023/01/29 17:23:2338.831N122.800W1.72 7 km ( 4 mi) W of Cobb, CA
map0.32023/01/29 17:22:2438.834N122.815W1.2 8 km ( 5 mi) W of Cobb, CA
map0.32023/01/29 16:42:1636.055N120.625W2.87 25 km (15 mi) NW of Parkfield, CA
map0.82023/01/29 16:38:1138.809N122.826W1.59 7 km ( 4 mi) WNW of The Geysers, CA
map0.82023/01/29 16:09:2933.887N116.263W2.96 14 km ( 9 mi) ENE of Thousand Palms, CA
map2.22023/01/29 15:50:4733.889N116.257W5.52 15 km ( 9 mi) ENE of Thousand Palms, CA
map0.62023/01/29 15:40:3838.846N122.784W1.18 6 km ( 4 mi) WNW of Cobb, CA
map0.92023/01/29 15:28:4738.804N122.820W2.79 6 km ( 4 mi) WNW of The Geysers, CA
map0.82023/01/29 15:26:3438.834N122.807W2.6 7 km ( 5 mi) W of Cobb, CA
map1.42023/01/29 14:49:4038.801N122.769W1.42 3 km ( 2 mi) NNW of The Geysers, CA
map1.22023/01/29 14:32:5138.767N122.709W-0.66 4 km ( 3 mi) ESE of The Geysers, CA
map0.72023/01/29 13:59:4838.786N122.788W1.39 3 km ( 2 mi) WNW of The Geysers, CA
map1.22023/01/29 13:57:0533.589N116.809W6.19 13 km ( 8 mi) WNW of Anza, CA
map0.52023/01/29 13:35:1138.822N122.796W0.92 6 km ( 4 mi) NW of The Geysers, CA
map0.92023/01/29 13:24:4233.426N116.912W6.98 5 km ( 3 mi) WSW of Aguanga, CA
map0.52023/01/29 13:19:5938.859N122.836W4.71 11 km ( 7 mi) WNW of Cobb, CA
map0.12023/01/29 13:19:2938.806N122.809W1.56 6 km ( 3 mi) NW of The Geysers, CA
map0.92023/01/29 13:06:0933.885N116.260W3.21 14 km ( 9 mi) ENE of Thousand Palms, CA
map2.32023/01/29 12:35:3138.786N122.786W1.24 3 km ( 2 mi) WNW of The Geysers, CA
map1.22023/01/29 12:24:2638.759N122.728W1.89 3 km ( 2 mi) SE of The Geysers, CA
map1.12023/01/29 12:12:4135.507N118.387W10.06 13 km ( 8 mi) SE of Bodfish, CA
map0.32023/01/29 11:52:2838.805N122.819W3.25 6 km ( 4 mi) WNW of The Geysers, CA
map1.22023/01/29 11:51:1438.803N122.818W2.99 6 km ( 4 mi) WNW of The Geysers, CA
map0.32023/01/29 11:03:5038.835N122.793W2.59 6 km ( 4 mi) WNW of Cobb, CA
map0.72023/01/29 10:48:3638.838N122.836W1.44 10 km ( 6 mi) NW of The Geysers, CA
map1.52023/01/29 10:48:0035.653N117.539W9.7 13 km ( 8 mi) ENE of Ridgecrest, CA
map2.52023/01/29 10:25:5035.727N117.615W9.38 13 km ( 8 mi) NNE of Ridgecrest, CA
map0.82023/01/29 10:12:0333.550N116.407W6.42 15 km (10 mi) SW of La Quinta, CA
map1.12023/01/29 10:10:4235.892N117.685W6.36 21 km (13 mi) ESE of Little Lake, CA
map-0.12023/01/29 09:52:3038.780N122.761W0.82 1 km ( 0 mi) WNW of The Geysers, CA
map0.22023/01/29 09:27:4738.838N122.842W1.53 10 km ( 6 mi) NW of The Geysers, CA
map1.02023/01/29 08:45:0834.432N119.296W10.81 5 km ( 3 mi) WSW of Ojai, CA
map0.62023/01/29 08:44:2238.843N122.840W1.98 10 km ( 6 mi) NW of The Geysers, CA
map1.82023/01/29 08:26:0638.829N122.794W0.79 6 km ( 4 mi) W of Cobb, CA
map2.52023/01/29 08:25:3938.830N122.795W1.11 6 km ( 4 mi) W of Cobb, CA
map0.42023/01/29 08:13:2338.834N122.816W1.85 8 km ( 5 mi) NW of The Geysers, CA
map1.12023/01/29 08:02:4038.804N122.782W2.29 4 km ( 2 mi) NW of The Geysers, CA
map1.12023/01/29 08:02:0138.834N122.815W1.61 8 km ( 5 mi) W of Cobb, CA
map1.82023/01/29 08:01:4738.832N122.814W1.81 8 km ( 5 mi) NW of The Geysers, CA
map1.12023/01/29 07:57:4233.980N118.899W15.57 9 km ( 5 mi) WSW of Malibu, CA
map1.62023/01/29 07:56:1438.833N122.816W1.75 8 km ( 5 mi) NW of The Geysers, CA
map1.12023/01/29 07:50:3538.818N122.780W1.06 5 km ( 3 mi) W of Cobb, CA
map1.42023/01/29 07:47:1433.131N115.602W9.78 8 km ( 5 mi) W of Calipatria, CA
map0.72023/01/29 07:43:3038.807N122.811W1.14 6 km ( 4 mi) NW of The Geysers, CA
map0.92023/01/29 07:32:2334.441N119.314W8.3 7 km ( 4 mi) W of Ojai, CA
map0.72023/01/29 07:32:1038.827N122.805W1.71 7 km ( 4 mi) NW of The Geysers, CA
map0.92023/01/29 07:14:4438.793N122.749W2.41 2 km ( 1 mi) NNE of The Geysers, CA
map1.72023/01/29 06:15:3439.389N122.889W6.86 25 km (16 mi) N of Upper Lake, CA
map0.52023/01/29 06:00:3438.824N122.854W2.18 10 km ( 6 mi) WNW of The Geysers, CA
map2.02023/01/29 06:00:1836.863N121.592W5.46 5 km ( 3 mi) WNW of San Juan Bautista, CA
map1.12023/01/29 05:42:2938.774N122.742W0.36 1 km ( 1 mi) ESE of The Geysers, CA
map1.02023/01/29 04:56:1033.199N116.047W9.49 10 km ( 6 mi) NE of Ocotillo Wells, CA
map0.62023/01/29 04:24:3934.230N117.504W7.75 3 km ( 2 mi) S of Lytle Creek, CA
map0.52023/01/29 03:44:1838.822N122.857W2.12 10 km ( 6 mi) WNW of The Geysers, CA
map1.82023/01/29 03:22:1238.843N122.824W2.26 9 km ( 6 mi) WNW of Cobb, CA
map2.02023/01/29 02:49:4432.929N116.228W12.99 25 km (16 mi) SSW of Ocotillo Wells, CA
map2.22023/01/29 02:49:3632.928N116.227W11 26 km (16 mi) SSW of Ocotillo Wells, CA
map0.12023/01/29 02:29:4038.792N122.761W2.17 2 km ( 1 mi) NNW of The Geysers, CA
map1.12023/01/29 02:22:0337.104N117.972W12.2 29 km (18 mi) ESE of Big Pine, CA
map0.92023/01/29 02:11:0338.791N122.766W2.72 2 km ( 1 mi) NNW of The Geysers, CA
map0.62023/01/29 01:56:1638.792N122.757W4.37 2 km ( 1 mi) N of The Geysers, CA
map1.92023/01/29 01:28:4434.459N117.959W7.96 7 km ( 4 mi) SW of Pearblossom, CA
map1.82023/01/29 01:26:0338.792N122.760W2.37 2 km ( 1 mi) NNW of The Geysers, CA
map1.02023/01/29 01:23:3138.777N122.713W2.2 4 km ( 2 mi) E of The Geysers, CA
map0.92023/01/29 01:15:5334.329N119.025W4.46 4 km ( 3 mi) SE of Santa Paula, CA
map0.82023/01/29 00:23:1634.438N119.295W8.19 5 km ( 3 mi) WSW of Ojai, CA
map1.22023/01/29 00:05:3734.437N119.308W10.86 6 km ( 4 mi) WSW of Ojai, CA
map1.12023/01/29 00:04:0538.796N122.765W0.88 2 km ( 1 mi) NNW of The Geysers, CA
map1.22023/01/28 23:48:5434.431N119.277W12.15 4 km ( 2 mi) WSW of Ojai, CA
map0.42023/01/28 23:35:3033.851N117.674W11.16 10 km ( 6 mi) WSW of Corona, CA
map1.22023/01/28 23:30:1933.126N115.605W7.96 8 km ( 5 mi) W of Calipatria, CA
map0.82023/01/28 23:16:3438.792N122.761W2.3 2 km ( 1 mi) NNW of The Geysers, CA
map2.02023/01/28 23:11:4040.643N122.321W17.25 6 km ( 4 mi) SE of Shasta Lake, CA
map1.12023/01/28 23:09:2038.842N122.839W1.98 10 km ( 6 mi) NW of The Geysers, CA
map0.32023/01/28 22:11:0038.804N122.779W3.67 4 km ( 2 mi) NNW of The Geysers, CA
map0.42023/01/28 22:02:4338.822N122.794W2.82 6 km ( 4 mi) NNW of The Geysers, CA
map0.92023/01/28 21:45:5733.690N116.733W13.65 6 km ( 4 mi) SSW of Idyllwild, CA
map1.42023/01/28 21:45:5335.361N118.591W1.96 27 km (17 mi) SSW of Bodfish, CA
map1.02023/01/28 21:36:2538.760N122.712W1.44 4 km ( 3 mi) ESE of The Geysers, CA
map0.72023/01/28 21:29:3038.780N122.711W2.21 4 km ( 2 mi) E of The Geysers, CA
map0.72023/01/28 21:13:5638.804N122.816W3.18 6 km ( 4 mi) WNW of The Geysers, CA
map0.62023/01/28 21:09:1738.833N122.815W1.58 8 km ( 5 mi) NW of The Geysers, CA
map1.82023/01/28 20:48:4540.105N119.703W9.0 51 km (32 mi) N of Spanish Springs, NV
map0.42023/01/28 20:46:0838.847N122.822W1.94 9 km ( 6 mi) WNW of Cobb, CA
map0.32023/01/28 20:45:0238.832N122.817W1.79 8 km ( 5 mi) NW of The Geysers, CA
map2.12023/01/28 20:43:4338.832N122.816W1.76 8 km ( 5 mi) NW of The Geysers, CA
map2.32023/01/28 20:42:3935.641N117.451W9.62 15 km ( 9 mi) SSW of Searles Valley, CA
map1.22023/01/28 20:21:0636.706N121.353W1.99 12 km ( 7 mi) S of Ridgemark, CA
map0.52023/01/28 20:09:5534.212N117.852W10.92 8 km ( 5 mi) N of Glendora, CA
map1.82023/01/28 20:06:5333.061N116.409W13.14 18 km (11 mi) E of Julian, CA
map0.82023/01/28 20:06:3533.064N116.399W14.31 19 km (12 mi) E of Julian, CA
map0.42023/01/28 19:30:3438.845N122.783W-0.76 6 km ( 4 mi) WNW of Cobb, CA
map0.82023/01/28 19:25:4838.795N122.781W3.09 3 km ( 2 mi) NW of The Geysers, CA
map0.72023/01/28 19:19:3233.398N116.370W4.71 16 km (10 mi) N of Borrego Springs, CA
map0.82023/01/28 19:11:5233.043N116.425W7.16 17 km (11 mi) ESE of Julian, CA
map0.62023/01/28 19:08:2133.389N116.880W5.9 4 km ( 2 mi) NNW of Palomar Observatory, CA
map1.02023/01/28 19:01:4834.438N119.312W10.26 6 km ( 4 mi) W of Ojai, CA
map0.82023/01/28 18:47:3633.486N116.556W7.92 13 km ( 8 mi) SE of Anza, CA
map0.52023/01/28 18:31:3233.699N116.705W16.02 5 km ( 3 mi) SSE of Idyllwild, CA
map0.82023/01/28 18:22:2938.817N122.824W2.13 7 km ( 5 mi) NW of The Geysers, CA
map1.02023/01/28 18:07:2933.731N116.054W5.38 12 km ( 8 mi) ENE of Coachella, CA
map1.22023/01/28 17:48:1738.782N122.722W1.82 3 km ( 2 mi) E of The Geysers, CA
map1.62023/01/28 17:47:1738.782N122.726W1.44 3 km ( 2 mi) E of The Geysers, CA
map2.42023/01/28 17:26:5239.722N122.819W4.25 38 km (23 mi) ESE of Covelo, CA
map0.82023/01/28 17:14:1538.804N122.821W3.34 6 km ( 4 mi) WNW of The Geysers, CA
map1.12023/01/28 17:05:1138.815N122.795W2.31 5 km ( 3 mi) NW of The Geysers, CA
map0.42023/01/28 17:03:0038.803N122.819W2.85 6 km ( 4 mi) WNW of The Geysers, CA
map1.02023/01/28 17:02:5138.804N122.818W2.5 6 km ( 4 mi) WNW of The Geysers, CA
map1.92023/01/28 16:52:2138.816N122.796W2.63 5 km ( 3 mi) NW of The Geysers, CA
map1.02023/01/28 16:49:3638.832N122.817W1.91 8 km ( 5 mi) NW of The Geysers, CA
map0.22023/01/28 16:40:1333.533N116.730W4.49 6 km ( 4 mi) WSW of Anza, CA
map0.82023/01/28 16:17:2434.515N118.122W13.34 2 km ( 1 mi) NNW of Vincent, CA
map-0.12023/01/28 16:16:4238.790N122.768W1.76 2 km ( 1 mi) NW of The Geysers, CA
map0.52023/01/28 16:06:5238.800N122.819W6.69 6 km ( 4 mi) WNW of The Geysers, CA
map0.82023/01/28 16:06:3138.802N122.819W2.97 6 km ( 4 mi) WNW of The Geysers, CA
map1.52023/01/28 16:00:5138.803N122.818W3.22 6 km ( 4 mi) WNW of The Geysers, CA
MAP3.72023/01/28 15:56:5840.535N124.397W24.7 12 km ( 8 mi) WSW of Ferndale, CA
map0.82023/01/28 15:46:1833.531N116.727W4.66 6 km ( 3 mi) WSW of Anza, CA
map0.82023/01/28 15:23:5538.804N122.819W2.85 6 km ( 4 mi) WNW of The Geysers, CA
map1.32023/01/28 15:21:0432.890N115.525W5.98 6 km ( 4 mi) NE of Imperial, CA
map0.42023/01/28 15:19:0338.838N122.824W2.03 9 km ( 6 mi) W of Cobb, CA
map0.22023/01/28 15:15:5538.823N122.766W2.21 4 km ( 2 mi) W of Cobb, CA
map1.82023/01/28 15:14:4138.175N117.867W6.9 57 km (35 mi) WNW of Tonopah, NV
map0.82023/01/28 15:07:3233.997N117.193W12.66 7 km ( 4 mi) S of Redlands, CA
map1.32023/01/28 14:58:2335.714N117.557W2.87 15 km ( 9 mi) NE of Ridgecrest, CA
map1.12023/01/28 13:12:2238.798N122.740W1.08 3 km ( 2 mi) NNE of The Geysers, CA
map2.52023/01/28 12:57:3238.164N117.838W10.2 54 km (34 mi) W of Tonopah, NV
map0.32023/01/28 12:44:2738.795N122.736W1.4 3 km ( 2 mi) NE of The Geysers, CA
map1.12023/01/28 12:41:3938.796N122.737W0.9 3 km ( 2 mi) NE of The Geysers, CA
map1.52023/01/28 12:41:1738.794N122.738W1.23 2 km ( 2 mi) NE of The Geysers, CA
map1.52023/01/28 12:40:5435.676N117.524W10.87 15 km ( 9 mi) SW of Searles Valley, CA
map1.42023/01/28 12:39:0038.796N122.737W1.09 3 km ( 2 mi) NE of The Geysers, CA
map0.22023/01/28 12:38:3838.797N122.739W1.94 3 km ( 2 mi) NE of The Geysers, CA
map2.02023/01/28 12:38:0138.795N122.741W1.22 2 km ( 1 mi) NE of The Geysers, CA
map0.82023/01/28 12:24:4038.774N122.748W0.33 1 km ( 1 mi) ESE of The Geysers, CA
map1.82023/01/28 12:18:2138.796N122.722W2.28 3 km ( 2 mi) S of Cobb, CA
map1.12023/01/28 12:13:3738.836N122.809W0.63 8 km ( 5 mi) WNW of Cobb, CA
map0.52023/01/28 11:45:2633.373N116.380W11.51 13 km ( 8 mi) N of Borrego Springs, CA
map0.72023/01/28 11:35:0138.837N122.794W2.06 6 km ( 4 mi) WNW of Cobb, CA
map0.82023/01/28 10:40:1633.212N115.981W4.68 10 km ( 6 mi) SSW of Salton City, CA
map0.72023/01/28 10:33:1938.832N122.819W1.82 8 km ( 5 mi) NW of The Geysers, CA
map0.32023/01/28 10:29:1333.621N116.661W12.83 7 km ( 5 mi) N of Anza, CA
map0.72023/01/28 10:05:1538.834N122.818W2.05 8 km ( 5 mi) NW of The Geysers, CA
map0.62023/01/28 10:00:0633.663N116.710W15.59 9 km ( 5 mi) S of Idyllwild, CA
map0.92023/01/28 09:54:2733.393N116.890W7.84 5 km ( 3 mi) NNW of Palomar Observatory, CA
map1.02023/01/28 09:36:5638.782N122.598W6.41 4 km ( 2 mi) NNE of Middletown, CA
map1.52023/01/28 09:34:2938.178N117.867W10.5 57 km (35 mi) WNW of Tonopah, NV
MAP3.72023/01/28 09:16:1538.173N117.864W7.9 57 km (35 mi) WNW of Tonopah, NV
map0.92023/01/28 09:07:2938.831N122.816W2.13 8 km ( 5 mi) NW of The Geysers, CA
map1.22023/01/28 08:59:0736.224N117.890W2.29 12 km ( 8 mi) ESE of Olancha, CA
map0.92023/01/28 07:42:1338.819N122.799W3.5 6 km ( 4 mi) NW of The Geysers, CA
map1.42023/01/28 07:26:2935.813N117.644W7.82 22 km (13 mi) N of Ridgecrest, CA
map0.62023/01/28 07:01:4338.845N122.841W2.28 10 km ( 7 mi) NW of The Geysers, CA
map1.32023/01/28 06:32:3632.919N115.505W6.16 7 km ( 4 mi) SSE of Brawley, CA
map0.32023/01/28 06:17:2233.677N116.727W14.89 7 km ( 4 mi) S of Idyllwild, CA
map0.22023/01/28 06:10:1733.599N116.807W5.57 13 km ( 8 mi) WNW of Anza, CA
map0.82023/01/28 05:53:5234.000N116.833W19.5 9 km ( 6 mi) NNE of Banning, CA
map1.02023/01/28 05:50:2433.655N116.874W16.11 10 km ( 6 mi) S of Valle Vista, CA
map0.32023/01/28 05:48:1033.531N116.729W4.8 6 km ( 4 mi) WSW of Anza, CA
map0.72023/01/28 05:06:5633.680N116.738W14.08 7 km ( 4 mi) SSW of Idyllwild, CA
map0.52023/01/28 04:04:3133.637N116.686W13.29 9 km ( 6 mi) N of Anza, CA
map0.52023/01/28 04:04:3033.124N116.985W17.71 5 km ( 3 mi) NW of San Pasqual, CA
map1.12023/01/28 04:01:0938.177N117.817W9.3 53 km (33 mi) WNW of Tonopah, NV
map0.42023/01/28 03:54:4038.831N122.802W1.61 7 km ( 4 mi) W of Cobb, CA
map1.72023/01/28 03:24:0937.654N119.018W-1.18 4 km ( 2 mi) WNW of Mammoth Lakes, CA
map1.12023/01/28 03:21:0938.834N122.817W1.59 8 km ( 5 mi) NW of The Geysers, CA
map1.52023/01/28 03:03:4638.543N119.522W7.0 31 km (19 mi) SSW of Smith Valley, NV
map0.42023/01/28 02:26:0633.514N116.562W13.7 11 km ( 7 mi) ESE of Anza, CA
map1.42023/01/28 02:21:4632.644N117.307W15.62 12 km ( 8 mi) WSW of Coronado, CA
map0.12023/01/28 02:20:0138.789N122.778W2.37 2 km ( 1 mi) NW of The Geysers, CA
map1.32023/01/28 02:11:4436.605N121.189W5.92 24 km (15 mi) NNE of Soledad, CA
map0.52023/01/28 01:49:3733.664N116.694W15.57 9 km ( 5 mi) SSE of Idyllwild, CA
map0.92023/01/28 01:47:4833.656N116.711W13.58 9 km ( 6 mi) S of Idyllwild, CA
map0.22023/01/28 01:41:3438.828N122.827W1.85 8 km ( 5 mi) NW of The Geysers, CA
map1.72023/01/28 01:39:2338.832N122.904W4.76 10 km ( 6 mi) ENE of Cloverdale, CA
map0.92023/01/28 01:33:0635.709N117.558W4.41 15 km ( 9 mi) NE of Ridgecrest, CA
map1.22023/01/28 01:26:4638.848N122.815W1.75 8 km ( 5 mi) WNW of Cobb, CA
map1.12023/01/28 01:19:5235.711N121.023W6.1 13 km ( 8 mi) W of Lake Nacimiento, CA
map1.52023/01/28 01:09:4733.369N116.886W5.74 3 km ( 2 mi) NW of Palomar Observatory, CA
map0.42023/01/28 00:54:2833.521N116.572W12.57 10 km ( 6 mi) ESE of Anza, CA
map1.32023/01/28 00:37:3239.900N120.802W9.1 9 km ( 6 mi) ESE of East Quincy, CA
map1.62023/01/28 00:37:0333.514N116.576W11.94 10 km ( 6 mi) ESE of Anza, CA
map1.12023/01/28 00:34:0934.658N116.300W2.87 15 km ( 9 mi) WSW of Ludlow, CA
map0.92023/01/28 00:21:4133.115N116.418W11.88 16 km (10 mi) SSW of Borrego Springs, CA
map2.02023/01/28 00:06:1532.386N115.403W12.59 20 km (12 mi) W of Delta, B.C., MX
map-0.12023/01/27 23:45:0939.354N119.971W2.5 11 km ( 7 mi) N of Incline Village, NV
map0.82023/01/27 23:28:2438.816N122.795W2.38 5 km ( 3 mi) NW of The Geysers, CA
map1.02023/01/27 23:27:4038.814N122.805W2.38 6 km ( 4 mi) NW of The Geysers, CA
map0.42023/01/27 23:22:0438.825N122.854W2.31 10 km ( 6 mi) WNW of The Geysers, CA
map2.12023/01/27 23:09:0733.979N116.835W14.04 7 km ( 4 mi) NNE of Banning, CA
map0.82023/01/27 23:00:2138.819N122.823W2.71 7 km ( 5 mi) NW of The Geysers, CA
map1.12023/01/27 22:50:3236.221N117.891W2.49 12 km ( 8 mi) SE of Olancha, CA
map1.12023/01/27 22:49:2936.129N120.239W7.21 11 km ( 7 mi) E of Coalinga, CA
map1.02023/01/27 22:43:5138.824N122.811W1.44 7 km ( 4 mi) NW of The Geysers, CA
map0.72023/01/27 22:43:1038.787N122.766W2.84 1 km ( 1 mi) NW of The Geysers, CA
map1.52023/01/27 22:35:5839.565N117.649W3.4 50 km (31 mi) W of Austin, NV
map1.22023/01/27 22:33:2738.829N122.815W2.4 8 km ( 5 mi) NW of The Geysers, CA
map1.42023/01/27 22:32:4838.829N122.814W2.21 8 km ( 5 mi) NW of The Geysers, CA
map1.42023/01/27 22:31:5336.217N117.883W2.71 13 km ( 8 mi) ESE of Olancha, CA
map0.52023/01/27 22:21:1133.639N116.832W10.24 13 km ( 8 mi) SSE of Valle Vista, CA
map0.42023/01/27 22:08:4338.836N122.808W1.99 7 km ( 5 mi) WNW of Cobb, CA
map1.02023/01/27 22:02:3638.836N122.808W2.08 7 km ( 5 mi) WNW of Cobb, CA
map0.52023/01/27 22:02:0637.654N119.019W-1.29 4 km ( 3 mi) WNW of Mammoth Lakes, CA
map1.02023/01/27 21:59:4135.509N118.397W6.04 12 km ( 8 mi) SE of Bodfish, CA
map0.72023/01/27 21:49:4738.834N122.798W2.18 7 km ( 4 mi) WNW of Cobb, CA
map0.72023/01/27 21:29:3533.651N116.704W13.59 10 km ( 6 mi) S of Idyllwild, CA
map1.12023/01/27 21:29:1238.805N122.818W2.82 6 km ( 4 mi) WNW of The Geysers, CA
map0.92023/01/27 21:28:3838.805N122.818W2.82 6 km ( 4 mi) WNW of The Geysers, CA
map2.22023/01/27 21:28:3533.639N116.722W13.97 10 km ( 6 mi) NNW of Anza, CA
map1.12023/01/27 21:23:0838.817N122.795W2.12 6 km ( 3 mi) NW of The Geysers, CA
map1.32023/01/27 21:21:2136.212N117.865W2.2 15 km ( 9 mi) ESE of Olancha, CA
map1.12023/01/27 21:09:5838.821N122.764W1.97 4 km ( 2 mi) W of Cobb, CA
map1.02023/01/27 20:54:0236.809N121.392W4.9 2 km ( 1 mi) W of Ridgemark, CA
map1.02023/01/27 20:40:5336.770N121.280W8.64 9 km ( 6 mi) ESE of Ridgemark, CA
map1.12023/01/27 20:31:5935.699N117.546W2.17 15 km ( 9 mi) NE of Ridgecrest, CA
map1.52023/01/27 20:31:2035.701N117.544W6.22 15 km ( 9 mi) WSW of Searles Valley, CA
map1.42023/01/27 20:12:4734.269N117.146W2.69 5 km ( 3 mi) ENE of Lake Arrowhead, CA
map0.52023/01/27 20:04:1238.839N122.809W2.7 8 km ( 5 mi) WNW of Cobb, CA
map0.32023/01/27 19:43:3538.798N122.740W2.19 3 km ( 2 mi) NNE of The Geysers, CA
map1.52023/01/27 19:27:4233.984N116.641W17.71 9 km ( 6 mi) SW of Morongo Valley, CA
map1.82023/01/27 19:22:5635.704N117.558W3.06 14 km ( 9 mi) NE of Ridgecrest, CA
map0.12023/01/27 19:15:0337.274N116.074W6.9 73 km (45 mi) NE of Beatty, NV
map-0.12023/01/27 18:54:3638.788N122.770W1.61 2 km ( 1 mi) NW of The Geysers, CA
map0.42023/01/27 18:50:4738.831N122.813W1.95 8 km ( 5 mi) NW of The Geysers, CA
map0.82023/01/27 18:50:1236.962N121.598W5.69 6 km ( 3 mi) SSW of Gilroy, CA
map-0.22023/01/27 18:50:0936.978N116.144W6.3 55 km (34 mi) E of Beatty, NV
map0.92023/01/27 18:35:1733.831N116.944W14.64 5 km ( 3 mi) NNE of San Jacinto, CA
map0.42023/01/27 18:33:4537.276N116.062W5.5 74 km (46 mi) NE of Beatty, NV
map0.72023/01/27 18:24:0133.224N116.857W14.46 9 km ( 6 mi) WSW of Lake Henshaw, CA
map0.92023/01/27 18:08:1238.140N117.993W6.7 67 km (42 mi) W of Tonopah, NV
map0.62023/01/27 18:06:5738.828N122.792W14.05 6 km ( 4 mi) W of Cobb, CA
map0.92023/01/27 17:55:0838.837N122.811W1.89 8 km ( 5 mi) WNW of Cobb, CA
map0.72023/01/27 17:38:1833.849N117.114W18.85 6 km ( 4 mi) NNE of Nuevo, CA
map2.22023/01/27 17:30:1737.950N118.062W7.6 70 km (43 mi) NNE of Dixon Lane-Meadow Creek, CA
map1.62023/01/27 17:29:1637.946N118.058W9.0 70 km (43 mi) NNE of Dixon Lane-Meadow Creek, CA
map0.42023/01/27 17:22:1433.524N116.567W13.58 10 km ( 7 mi) ESE of Anza, CA
map0.42023/01/27 17:20:4638.838N122.841W1.31 10 km ( 6 mi) NW of The Geysers, CA
map0.12023/01/27 17:13:0138.789N122.768W2.24 2 km ( 1 mi) NW of The Geysers, CA
map0.92023/01/27 17:11:3638.814N122.785W1.48 5 km ( 3 mi) NNW of The Geysers, CA
map0.92023/01/27 16:50:2938.825N122.762W2.26 3 km ( 2 mi) W of Cobb, CA
map0.22023/01/27 16:29:2738.833N122.803W1.47 7 km ( 4 mi) W of Cobb, CA
map0.92023/01/27 16:21:1938.819N122.804W3.46 6 km ( 4 mi) NW of The Geysers, CA
map0.72023/01/27 15:42:3838.827N122.853W2.27 10 km ( 6 mi) WNW of The Geysers, CA
map2.12023/01/27 15:34:3836.218N117.885W2.46 13 km ( 8 mi) ESE of Olancha, CA
map0.32023/01/27 15:29:4738.818N122.766W2.03 4 km ( 2 mi) W of Cobb, CA
map1.22023/01/27 15:00:5638.760N122.719W0.92 4 km ( 2 mi) ESE of The Geysers, CA
map0.92023/01/27 14:58:4538.814N122.820W2.64 7 km ( 4 mi) NW of The Geysers, CA
map0.62023/01/27 14:44:2838.843N122.842W1.98 10 km ( 6 mi) NW of The Geysers, CA
map0.72023/01/27 14:30:1038.818N122.781W2.49 5 km ( 3 mi) NNW of The Geysers, CA
map1.02023/01/27 14:28:0738.809N122.777W4.9 4 km ( 2 mi) NNW of The Geysers, CA
map1.32023/01/27 14:27:0138.831N122.810W1.69 8 km ( 5 mi) NW of The Geysers, CA
map0.22023/01/27 14:25:0638.819N122.782W1.03 5 km ( 3 mi) W of Cobb, CA
map0.52023/01/27 14:23:3638.817N122.786W1.81 5 km ( 3 mi) NNW of The Geysers, CA
map0.72023/01/27 14:21:2633.802N116.736W15.63 7 km ( 4 mi) NNW of Idyllwild, CA
map1.02023/01/27 14:15:4335.724N117.534W8.26 13 km ( 8 mi) WSW of Searles Valley, CA
map1.02023/01/27 13:39:1935.903N117.682W9.68 21 km (13 mi) E of Little Lake, CA
map1.62023/01/27 13:32:1835.674N121.119W5.56 13 km ( 8 mi) NNW of Cambria, CA
map0.52023/01/27 13:14:0138.833N122.816W2.07 8 km ( 5 mi) NW of The Geysers, CA
map0.52023/01/27 13:04:0138.816N122.787W1.52 5 km ( 3 mi) NNW of The Geysers, CA
map0.22023/01/27 12:46:0138.826N122.798W1.89 6 km ( 4 mi) NW of The Geysers, CA
map0.92023/01/27 12:42:4834.173N117.923W-1.17 21 km (13 mi) NNW of Quarry at POMONA (Probable quarry explosion)
map0.72023/01/27 12:38:3338.828N122.796W1.37 6 km ( 4 mi) W of Cobb, CA
map1.52023/01/27 12:06:5638.758N122.739W1.61 3 km ( 2 mi) SE of The Geysers, CA
map0.62023/01/27 11:53:0338.759N122.711W1.46 4 km ( 3 mi) ESE of The Geysers, CA
map1.12023/01/27 11:27:3538.799N122.751W1.91 2 km ( 1 mi) N of The Geysers, CA
map1.42023/01/27 11:23:1835.060N118.335W-1.01 2 km ( 1 mi) NW of Quarry at MOJAVE (Probable quarry explosion)
map-0.22023/01/27 11:22:5838.812N122.829W1.84 7 km ( 5 mi) WNW of The Geysers, CA
map1.12023/01/27 11:07:4633.017N116.421W6.99 18 km (11 mi) ESE of Julian, CA
map0.52023/01/27 10:52:3538.810N122.821W1.07 7 km ( 4 mi) WNW of The Geysers, CA
map1.32023/01/27 10:31:0634.082N117.297W15.28 2 km ( 1 mi) ENE of Colton, CA
map1.22023/01/27 10:09:4338.833N122.815W1.68 8 km ( 5 mi) NW of The Geysers, CA
map0.72023/01/27 09:58:1638.838N122.837W1.22 10 km ( 6 mi) NW of The Geysers, CA
map1.42023/01/27 09:51:5233.174N115.646W2.82 13 km ( 8 mi) WNW of Calipatria, CA
map0.92023/01/27 09:51:0936.725N121.103W4.16 25 km (16 mi) ESE of Ridgemark, CA
map0.82023/01/27 09:49:1838.838N122.837W1.42 10 km ( 6 mi) NW of The Geysers, CA
map1.72023/01/27 09:44:2438.141N117.981W8.2 66 km (41 mi) W of Tonopah, NV
map1.82023/01/27 09:43:3438.838N122.837W1.59 10 km ( 6 mi) NW of The Geysers, CA
map1.22023/01/27 09:37:2833.197N115.603W3.22 9 km ( 6 mi) WSW of Niland, CA
map1.42023/01/27 09:35:3133.890N118.703W15.26 16 km (10 mi) S of Malibu Beach, CA
map1.32023/01/27 09:34:1533.089N116.032W10.36 11 km ( 7 mi) ESE of Ocotillo Wells, CA
map0.82023/01/27 09:26:3038.838N122.837W1.3 10 km ( 6 mi) NW of The Geysers, CA
map1.22023/01/27 09:18:3333.393N116.369W3.97 15 km (10 mi) N of Borrego Springs, CA
map0.62023/01/27 09:08:1333.709N116.815W14 8 km ( 5 mi) ESE of Valle Vista, CA
map0.22023/01/27 09:02:3438.834N122.818W1.64 8 km ( 5 mi) NW of The Geysers, CA
map0.72023/01/27 08:52:1438.147N117.981W8.2 66 km (41 mi) W of Tonopah, NV
map0.12023/01/27 07:58:0238.755N122.719W0.81 4 km ( 3 mi) SE of The Geysers, CA
map0.82023/01/27 07:56:2138.761N122.724W2.44 3 km ( 2 mi) ESE of The Geysers, CA
map0.82023/01/27 07:55:5538.833N122.816W2.02 8 km ( 5 mi) NW of The Geysers, CA
map2.42023/01/27 07:55:2836.018N117.820W1.78 12 km ( 7 mi) ESE of Coso Junction, CA
map1.82023/01/27 07:52:3038.761N122.725W1.95 3 km ( 2 mi) SE of The Geysers, CA
map1.22023/01/27 07:45:4938.515N119.461W6.9 32 km (20 mi) SSW of Smith Valley, NV
map0.32023/01/27 07:25:0838.817N122.830W5.36 8 km ( 5 mi) NW of The Geysers, CA
map1.02023/01/27 07:20:4633.004N116.222W8.43 18 km (11 mi) SSW of Ocotillo Wells, CA
map0.42023/01/27 07:19:0538.833N122.815W1.4 8 km ( 5 mi) NW of The Geysers, CA
map2.62023/01/27 07:13:2235.734N117.618W9.61 14 km ( 8 mi) NNE of Ridgecrest, CA
map1.02023/01/27 07:09:0133.847N116.783W17.35 8 km ( 5 mi) S of Cabazon, CA
map0.82023/01/27 06:55:1938.805N122.809W1.72 6 km ( 3 mi) NW of The Geysers, CA
map0.72023/01/27 06:50:0138.835N122.816W1.65 8 km ( 5 mi) W of Cobb, CA
map0.52023/01/27 06:50:0139.425N119.655W3.6 15 km ( 9 mi) SE of Sparks, NV
map0.12023/01/27 06:22:5938.792N122.782W2.25 3 km ( 2 mi) NW of The Geysers, CA
map0.32023/01/27 06:06:3538.836N122.808W2.36 8 km ( 5 mi) WNW of Cobb, CA
map0.32023/01/27 05:59:5138.812N122.829W1.44 7 km ( 5 mi) WNW of The Geysers, CA
map0.32023/01/27 05:38:5538.807N122.775W-0.06 4 km ( 2 mi) NNW of The Geysers, CA
map1.22023/01/27 05:27:2936.505N116.934W0.0 10 km ( 6 mi) NW of Furnace Creek, CA
map0.32023/01/27 05:07:5038.225N118.743W14.8 35 km (22 mi) SSW of Hawthorne, NV
map0.32023/01/27 04:45:0738.830N122.814W2.12 8 km ( 5 mi) NW of The Geysers, CA
map-0.12023/01/27 04:39:5338.799N122.780W3.07 3 km ( 2 mi) NW of The Geysers, CA
map0.52023/01/27 04:30:1533.931N116.629W13.97 8 km ( 5 mi) WNW of Garnet, CA
map0.72023/01/27 04:29:0733.181N116.728W12.43 8 km ( 5 mi) SSE of Lake Henshaw, CA
map1.02023/01/27 04:26:1033.388N116.892W8.2 4 km ( 3 mi) NW of Palomar Observatory, CA
map0.52023/01/27 04:23:2833.593N116.810W5.77 13 km ( 8 mi) WNW of Anza, CA
map0.22023/01/27 04:17:1938.822N122.788W1.57 6 km ( 4 mi) W of Cobb, CA
map0.72023/01/27 03:55:0138.148N117.978W5.4 66 km (41 mi) W of Tonopah, NV
map1.12023/01/27 03:34:3141.264N118.846W1.2 99 km (62 mi) WNW of Winnemucca, NV
map0.32023/01/27 03:00:0539.394N119.622W6.9 18 km (11 mi) N of Dayton, NV
map1.52023/01/27 02:50:2435.360N118.680W8.28 21 km (13 mi) NE of Arvin, CA
map1.52023/01/27 02:41:4938.684N122.385W1.89 13 km ( 8 mi) NNE of Angwin, CA
MAP3.22023/01/27 02:28:2240.588N124.124W17.1 3 km ( 2 mi) ESE of Fortuna, CA
map0.82023/01/27 01:58:3338.822N122.809W1.35 7 km ( 4 mi) NW of The Geysers, CA
map0.42023/01/27 01:57:2433.344N116.794W15.94 7 km ( 4 mi) E of Palomar Observatory, CA
map1.02023/01/27 01:52:2733.580N116.627W15.39 5 km ( 3 mi) ENE of Anza, CA
map1.32023/01/27 01:29:3638.177N117.880W8.8 58 km (36 mi) WNW of Tonopah, NV
map0.72023/01/27 01:25:5438.791N122.762W1.66 2 km ( 1 mi) NNW of The Geysers, CA
map0.52023/01/27 01:24:1733.489N116.556W7.61 13 km ( 8 mi) SE of Anza, CA
map0.12023/01/27 01:22:3639.151N119.619W7.9 10 km ( 6 mi) SSW of Dayton, NV
map0.72023/01/27 01:12:4833.548N116.415W9.95 16 km (10 mi) SW of La Quinta, CA
map0.22023/01/27 01:09:0638.848N122.814W0.85 8 km ( 5 mi) WNW of Cobb, CA
map1.42023/01/27 01:07:3636.217N117.881W2.79 13 km ( 8 mi) ESE of Olancha, CA
map1.12023/01/27 01:01:4333.014N116.422W7.8 18 km (11 mi) ESE of Julian, CA
map0.92023/01/27 01:01:1133.865N116.818W14.61 7 km ( 4 mi) SSW of Cabazon, CA
map1.12023/01/27 00:55:4138.153N117.893W9.4 59 km (36 mi) W of Tonopah, NV
map0.42023/01/27 00:50:2438.823N122.857W2.13 10 km ( 6 mi) WNW of The Geysers, CA
map1.32023/01/27 00:39:4132.890N115.995W8.95 17 km (11 mi) N of Ocotillo, CA
map1.32023/01/26 23:24:2038.177N117.814W9.3 52 km (33 mi) WNW of Tonopah, NV
map0.82023/01/26 23:24:1533.416N116.585W12.01 16 km (10 mi) NNE of Warner Springs, CA
map1.22023/01/26 23:16:2836.218N117.885W2.51 13 km ( 8 mi) ESE of Olancha, CA
map0.82023/01/26 23:13:2938.799N122.753W2.03 2 km ( 1 mi) N of The Geysers, CA
map0.32023/01/26 23:13:0238.836N122.816W1.6 8 km ( 5 mi) W of Cobb, CA
map0.82023/01/26 22:55:4038.827N122.854W2.13 10 km ( 6 mi) WNW of The Geysers, CA
map0.72023/01/26 22:46:0738.815N122.787W1.18 5 km ( 3 mi) NNW of The Geysers, CA
map0.62023/01/26 22:45:3333.468N116.569W9.22 14 km ( 9 mi) SE of Anza, CA
map0.42023/01/26 22:35:2733.468N116.565W8.25 14 km ( 9 mi) SE of Anza, CA
map0.32023/01/26 22:14:2938.833N122.814W1.4 8 km ( 5 mi) NW of The Geysers, CA
map0.42023/01/26 22:10:5638.823N122.763W1.6 3 km ( 2 mi) W of Cobb, CA
map1.02023/01/26 22:10:2738.822N122.765W1.81 4 km ( 2 mi) W of Cobb, CA
map0.22023/01/26 22:08:3936.723N115.925W6.4 58 km (36 mi) N of Pahrump, NV
map1.72023/01/26 22:07:5838.831N122.813W1.85 8 km ( 5 mi) NW of The Geysers, CA
map0.32023/01/26 21:47:4338.837N122.801W2.3 7 km ( 4 mi) WNW of Cobb, CA
map0.92023/01/26 21:47:0532.968N116.294W11.67 25 km (15 mi) SW of Ocotillo Wells, CA
map0.32023/01/26 21:33:2938.831N122.812W1.99 8 km ( 5 mi) NW of The Geysers, CA
map1.82023/01/26 21:31:3038.829N122.811W2.01 7 km ( 5 mi) NW of The Geysers, CA
map-0.12023/01/26 21:17:3038.747N122.717W-0.78 5 km ( 3 mi) SE of The Geysers, CA
map1.02023/01/26 21:14:4438.068N118.793W7.2 51 km (31 mi) NNE of Mammoth Lakes, CA
map0.62023/01/26 21:07:0133.549N116.407W7.01 16 km (10 mi) SW of La Quinta, CA
map0.32023/01/26 20:52:1740.045N119.675W12.8 44 km (27 mi) N of Spanish Springs, NV
map1.52023/01/26 20:37:1740.037N119.624W11.3 44 km (27 mi) N of Spanish Springs, NV
map1.52023/01/26 20:29:1541.986N119.557W0.2 69 km (43 mi) ESE of Lakeview, OR
map1.12023/01/26 20:26:4238.789N122.761W1.32 1 km ( 1 mi) NNW of The Geysers, CA
map1.02023/01/26 20:09:1636.745N121.456W8.02 11 km ( 7 mi) SW of Ridgemark, CA
map1.32023/01/26 19:59:2332.673N115.849W9.74 15 km ( 9 mi) ESE of Ocotillo, CA
map0.62023/01/26 19:51:1938.825N122.854W2.3 10 km ( 6 mi) WNW of The Geysers, CA
map1.42023/01/26 19:44:1041.947N119.556W1.3 71 km (44 mi) ESE of Lakeview, OR
map1.62023/01/26 19:36:3641.961N119.567W0.3 69 km (43 mi) ESE of Lakeview, OR
map1.12023/01/26 19:34:2136.839N121.566W6.35 3 km ( 2 mi) WSW of San Juan Bautista, CA
map1.12023/01/26 19:22:5038.836N122.808W2.08 7 km ( 5 mi) WNW of Cobb, CA
map0.12023/01/26 19:16:4240.100N119.741W15.1 50 km (31 mi) N of Spanish Springs, NV
map1.92023/01/26 18:52:4438.900N123.606W7.61 24 km (15 mi) WSW of Boonville, CA
map1.22023/01/26 18:51:2938.815N122.785W1.29 5 km ( 3 mi) NNW of The Geysers, CA
map0.42023/01/26 18:25:3238.810N122.813W0.67 6 km ( 4 mi) NW of The Geysers, CA
map0.22023/01/26 18:18:3838.847N122.816W0.88 9 km ( 5 mi) WNW of Cobb, CA
map0.92023/01/26 18:18:2538.847N122.814W0.79 8 km ( 5 mi) WNW of Cobb, CA
map0.32023/01/26 18:00:2738.834N122.812W0.91 8 km ( 5 mi) W of Cobb, CA
map0.52023/01/26 17:56:2633.398N116.831W7.59 6 km ( 3 mi) NNE of Palomar Observatory, CA
map0.72023/01/26 17:52:2633.786N116.954W14.35 1 km ( 0 mi) ENE of San Jacinto, CA
map0.72023/01/26 17:48:4538.818N122.780W1.76 5 km ( 3 mi) NNW of The Geysers, CA
map0.92023/01/26 17:36:5137.302N121.675W6.29 15 km ( 9 mi) E of Seven Trees, CA
map1.12023/01/26 17:31:5138.822N122.795W2.59 6 km ( 4 mi) NW of The Geysers, CA
map0.82023/01/26 17:29:3137.112N121.546W10.85 6 km ( 4 mi) ENE of San Martin, CA
map0.22023/01/26 17:11:5438.825N122.799W2.81 6 km ( 4 mi) NW of The Geysers, CA
map1.92023/01/26 17:10:5537.420N118.574W10.3 12 km ( 8 mi) WNW of West Bishop, CA
map1.92023/01/26 17:10:0233.706N116.821W14.61 8 km ( 5 mi) SE of Valle Vista, CA
map0.32023/01/26 17:04:3438.822N122.797W1.05 6 km ( 4 mi) NW of The Geysers, CA
map0.92023/01/26 17:04:1938.822N122.796W1.25 6 km ( 4 mi) NW of The Geysers, CA
map1.32023/01/26 16:51:3233.408N116.594W12.81 14 km ( 9 mi) NNE of Warner Springs, CA
map1.62023/01/26 16:48:5836.849N121.460W5.55 6 km ( 3 mi) W of Hollister, CA
map-0.12023/01/26 16:48:5136.016N120.576W2.44 18 km (11 mi) NW of Parkfield, CA
map1.12023/01/26 16:48:1136.843N121.466W5.91 6 km ( 4 mi) W of Hollister, CA
map1.72023/01/26 16:45:1333.221N116.281W7.34 10 km ( 6 mi) ESE of Borrego Springs, CA
map1.42023/01/26 16:25:3836.009N115.043W9.2 3 km ( 2 mi) SW of Henderson, NV
map1.02023/01/26 16:18:4838.802N122.770W1.26 3 km ( 2 mi) NNW of The Geysers, CA
map0.72023/01/26 16:15:1338.840N122.836W1.58 10 km ( 6 mi) NW of The Geysers, CA
map1.42023/01/26 16:06:3239.141N122.634W3.4 13 km ( 8 mi) NNE of Clearlake Oaks, CA
map2.32023/01/26 16:00:4838.163N117.928W12.6 62 km (38 mi) W of Tonopah, NV
map1.32023/01/26 15:32:1033.654N116.877W17.39 11 km ( 7 mi) S of Valle Vista, CA
map0.22023/01/26 15:26:0838.842N122.825W2.34 9 km ( 6 mi) WNW of Cobb, CA
map1.32023/01/26 15:25:2738.788N122.746W1.69 1 km ( 1 mi) NE of The Geysers, CA
map1.12023/01/26 15:19:5533.038N116.401W6.2 19 km (12 mi) ESE of Julian, CA
map0.82023/01/26 15:14:5038.788N122.769W2.6 2 km ( 1 mi) NW of The Geysers, CA
map1.02023/01/26 14:46:3738.839N122.811W0.65 8 km ( 5 mi) WNW of Cobb, CA
map0.92023/01/26 14:28:2337.495N118.802W6.77 22 km (14 mi) SE of Mammoth Lakes, CA
map1.22023/01/26 14:22:1338.270N118.800W7.2 32 km (20 mi) SSW of Hawthorne, NV
map0.92023/01/26 14:11:3138.807N122.782W2.86 4 km ( 2 mi) NW of The Geysers, CA
map0.82023/01/26 13:49:1433.499N116.533W8.28 14 km ( 9 mi) ESE of Anza, CA
map1.52023/01/26 13:47:1637.971N122.053W12.18 2 km ( 2 mi) SE of Pacheco, CA
map1.52023/01/26 13:19:5435.048N118.319W-0.82 0 km ( 0 mi) SE of Quarry at MOJAVE (Probable quarry explosion)
map0.52023/01/26 13:16:5438.824N122.853W2.34 10 km ( 6 mi) WNW of The Geysers, CA
map0.32023/01/26 13:14:4239.718N119.695W14.9 8 km ( 5 mi) N of Spanish Springs, NV
map0.82023/01/26 13:12:0438.829N122.853W1.81 10 km ( 6 mi) NW of The Geysers, CA
map0.92023/01/26 13:03:3633.875N117.500W-0.54 3 km ( 2 mi) N of Quarry at CORONA (Probable quarry explosion)
map1.42023/01/26 13:01:3334.348N116.828W-1.7 2 km ( 1 mi) E of Quarry at CUSHENBURY (Probable quarry explosion)
map0.42023/01/26 12:51:5338.788N122.746W0.96 2 km ( 1 mi) NE of The Geysers, CA
map0.12023/01/26 12:51:5038.849N122.816W1.15 9 km ( 5 mi) WNW of Cobb, CA
map0.92023/01/26 12:48:1838.763N122.855W4.13 9 km ( 5 mi) W of The Geysers, CA
map0.32023/01/26 12:39:1038.824N122.803W5.31 7 km ( 4 mi) NW of The Geysers, CA
map0.62023/01/26 12:36:0638.825N122.794W2.63 6 km ( 4 mi) W of Cobb, CA
map0.82023/01/26 12:28:5538.836N122.791W1.48 6 km ( 4 mi) WNW of Cobb, CA
map1.02023/01/26 12:25:2038.456N117.844W12.1 68 km (42 mi) E of Hawthorne, NV
map1.52023/01/26 12:20:2633.850N117.496W-0.5 0 km ( 0 mi) E of Quarry at CORONA (Probable quarry explosion)
map1.12023/01/26 12:19:2137.058N121.509W5.71 8 km ( 5 mi) NE of Gilroy, CA
map1.42023/01/26 12:05:5437.962N118.055W8.2 71 km (44 mi) NNE of Dixon Lane-Meadow Creek, CA
map0.12023/01/26 11:55:4438.788N122.747W0.75 1 km ( 1 mi) NNE of The Geysers, CA
map1.72023/01/26 11:49:3233.181N116.036W7.34 10 km ( 6 mi) ENE of Ocotillo Wells, CA
map1.82023/01/26 11:34:2140.286N124.453W13.49 36 km (22 mi) SSW of Ferndale, CA
map0.12023/01/26 11:32:3838.783N122.743W0.65 1 km ( 1 mi) ENE of The Geysers, CA
map1.02023/01/26 11:16:1237.143N121.525W8.02 10 km ( 6 mi) NE of San Martin, CA
map0.82023/01/26 11:14:2437.599N118.807W5.71 16 km (10 mi) ESE of Mammoth Lakes, CA
map0.32023/01/26 11:12:4237.602N118.808W5.08 16 km (10 mi) ESE of Mammoth Lakes, CA
map0.72023/01/26 11:12:3538.828N122.782W1.5 5 km ( 3 mi) W of Cobb, CA
map0.62023/01/26 11:04:4038.825N122.785W0.92 5 km ( 3 mi) W of Cobb, CA
map2.32023/01/26 10:56:0238.779N122.744W0.44 1 km ( 1 mi) E of The Geysers, CA
map0.82023/01/26 10:49:2538.814N122.796W2.23 5 km ( 3 mi) NW of The Geysers, CA
map1.02023/01/26 10:47:3938.829N122.815W1.81 8 km ( 5 mi) NW of The Geysers, CA
map1.02023/01/26 10:45:1637.310N121.679W7.54 14 km ( 9 mi) E of Seven Trees, CA
map1.92023/01/26 10:09:2438.806N122.781W2.91 4 km ( 2 mi) NW of The Geysers, CA
map1.22023/01/26 09:55:2837.424N118.552W12.08 11 km ( 7 mi) NW of West Bishop, CA
map1.82023/01/26 09:48:4537.427N118.555W11.4 11 km ( 7 mi) NW of West Bishop, CA
map0.32023/01/26 09:40:5638.831N122.815W2.17 8 km ( 5 mi) NW of The Geysers, CA
map1.52023/01/26 09:32:4238.831N122.815W1.53 8 km ( 5 mi) NW of The Geysers, CA
map1.62023/01/26 09:22:2132.187N116.975W5.54 7 km ( 4 mi) SW of Primo Tapia, B.C., MX
map2.32023/01/26 09:13:0233.701N116.737W16.87 5 km ( 3 mi) SSW of Idyllwild, CA
map1.02023/01/26 09:10:3638.806N122.794W1.07 4 km ( 3 mi) NW of The Geysers, CA
map1.82023/01/26 08:58:2138.814N122.829W1.45 7 km ( 5 mi) WNW of The Geysers, CA
map-0.22023/01/26 08:57:5336.696N116.132W0.4 55 km (34 mi) N of Pahrump, NV
map1.12023/01/26 08:55:5738.822N122.838W2.91 9 km ( 5 mi) NW of The Geysers, CA
map0.82023/01/26 08:49:5438.832N122.816W1.43 8 km ( 5 mi) NW of The Geysers, CA
map0.92023/01/26 08:15:1538.812N122.813W2.98 6 km ( 4 mi) NW of The Geysers, CA
map0.62023/01/26 08:15:0538.255N118.371W11.9 37 km (23 mi) SE of Hawthorne, NV
map1.12023/01/26 08:04:3938.786N122.767W1.53 1 km ( 1 mi) NW of The Geysers, CA
map0.32023/01/26 07:30:4135.784N116.879W0.0 45 km (28 mi) E of Trona, CA
map1.52023/01/26 06:27:1936.169N118.435W3.77 41 km (25 mi) WSW of Olancha, CA
map0.72023/01/26 06:15:4433.466N116.567W9.37 14 km ( 9 mi) SE of Anza, CA
map1.12023/01/26 05:50:5633.016N116.427W6.57 18 km (11 mi) ESE of Julian, CA
map1.02023/01/26 05:49:5738.758N122.730W0.83 3 km ( 2 mi) SE of The Geysers, CA
map0.82023/01/26 05:46:1838.838N122.808W2.23 8 km ( 5 mi) WNW of Cobb, CA
map0.32023/01/26 05:11:1838.822N122.796W3.21 6 km ( 4 mi) NW of The Geysers, CA
map1.32023/01/26 05:11:1640.207N124.137W11.29 28 km (18 mi) WNW of Redway, CA
map0.62023/01/26 05:05:3838.890N119.645W9.6 8 km ( 5 mi) E of Gardnerville Ranchos, NV
map1.12023/01/26 04:58:5738.804N122.818W3.06 6 km ( 4 mi) WNW of The Geysers, CA
map0.22023/01/26 04:31:3138.775N122.712W2.78 4 km ( 2 mi) E of The Geysers, CA
map0.82023/01/26 03:54:0833.961N116.858W9.84 4 km ( 3 mi) NNE of Banning, CA
map0.82023/01/26 03:47:5037.149N121.523W10.44 11 km ( 7 mi) NE of San Martin, CA
map0.92023/01/26 03:24:3338.832N122.818W1.67 8 km ( 5 mi) NW of The Geysers, CA
map0.42023/01/26 03:07:1340.051N120.568W11.8 28 km (17 mi) S of Janesville, CA
map1.22023/01/26 03:05:0638.500N119.524W7.2 35 km (22 mi) SSW of Smith Valley, NV
map1.12023/01/26 02:58:3740.039N120.599W12.9 28 km (17 mi) NNW of Portola, CA
map0.72023/01/26 02:57:5938.841N122.824W1.84 9 km ( 6 mi) WNW of Cobb, CA
map1.32023/01/26 02:50:3437.596N118.805W5.9 16 km (10 mi) ESE of Mammoth Lakes, CA
map0.92023/01/26 02:49:2337.601N118.808W5.6 16 km (10 mi) ESE of Mammoth Lakes, CA
map0.92023/01/26 02:48:0037.597N118.807W5.9 16 km (10 mi) ESE of Mammoth Lakes, CA
map0.52023/01/26 02:37:4937.599N118.804W6.93 16 km (10 mi) ESE of Mammoth Lakes, CA
map0.72023/01/26 02:37:3337.596N118.803W6.46 16 km (10 mi) ESE of Mammoth Lakes, CA
map0.82023/01/26 02:37:2537.596N118.803W6.34 16 km (10 mi) ESE of Mammoth Lakes, CA
map0.32023/01/26 02:37:1537.603N118.813W4.91 15 km ( 9 mi) ESE of Mammoth Lakes, CA
map1.52023/01/26 02:35:0237.595N118.808W5.91 16 km (10 mi) ESE of Mammoth Lakes, CA
map1.22023/01/26 02:33:1337.596N118.804W6.49 16 km (10 mi) ESE of Mammoth Lakes, CA
map0.92023/01/26 01:39:1438.822N122.783W2.04 5 km ( 3 mi) W of Cobb, CA
map0.72023/01/26 01:33:5438.839N122.837W1.56 10 km ( 6 mi) NW of The Geysers, CA
map0.92023/01/26 01:31:0138.806N122.808W1.43 5 km ( 3 mi) NW of The Geysers, CA
map0.92023/01/26 01:27:3633.654N116.875W17.39 11 km ( 7 mi) S of Valle Vista, CA
map0.82023/01/26 01:19:2238.175N117.889W11.3 59 km (37 mi) WNW of Tonopah, NV
map0.62023/01/26 00:49:5637.147N121.524W7.67 10 km ( 6 mi) NE of San Martin, CA
map0.82023/01/26 00:42:3935.358N117.945W0.59 26 km (16 mi) N of California City, CA
map-0.12023/01/26 00:33:3838.837N122.801W2.59 7 km ( 4 mi) WNW of Cobb, CA
map1.32023/01/26 00:24:5536.458N121.035W8.64 24 km (15 mi) NE of Greenfield, CA
map1.72023/01/25 23:58:4732.966N116.297W10.95 25 km (16 mi) SW of Ocotillo Wells, CA
map2.52023/01/25 23:58:0532.962N116.301W10.43 26 km (16 mi) SW of Ocotillo Wells, CA
map0.82023/01/25 23:52:5136.846N121.455W5.43 5 km ( 3 mi) W of Hollister, CA
map1.12023/01/25 23:37:3838.834N122.818W1.67 8 km ( 5 mi) NW of The Geysers, CA
map0.12023/01/25 23:35:3839.119N119.728W12.1 6 km ( 4 mi) SE of Carson City, NV
map0.62023/01/25 23:28:3038.806N122.808W1.54 5 km ( 3 mi) NW of The Geysers, CA
map1.52023/01/25 23:27:1034.459N117.961W8.91 7 km ( 4 mi) SW of Pearblossom, CA
map0.82023/01/25 23:21:2938.806N122.810W1.8 6 km ( 4 mi) NW of The Geysers, CA
map0.82023/01/25 23:18:3338.788N122.774W10.37 2 km ( 1 mi) NW of The Geysers, CA
map1.12023/01/25 23:09:1038.805N122.808W1.31 5 km ( 3 mi) NW of The Geysers, CA
map1.02023/01/25 23:08:0638.806N122.809W1.42 6 km ( 3 mi) NW of The Geysers, CA
map0.52023/01/25 23:07:5338.805N122.809W1.48 6 km ( 3 mi) NW of The Geysers, CA
map0.72023/01/25 23:07:1538.806N122.808W1.51 6 km ( 3 mi) NW of The Geysers, CA
map2.32023/01/25 23:06:0838.806N122.806W1.14 5 km ( 3 mi) NW of The Geysers, CA
map0.42023/01/25 23:06:0338.806N122.808W1.24 5 km ( 3 mi) NW of The Geysers, CA
map1.32023/01/25 22:48:1737.142N121.532W6.83 9 km ( 6 mi) NE of San Martin, CA
map1.12023/01/25 22:36:1033.407N117.043W7.85 6 km ( 3 mi) NE of Pala, CA
map1.52023/01/25 22:34:5938.373N116.974W0.9 41 km (25 mi) NNE of Tonopah, NV
map1.92023/01/25 22:23:2939.703N123.135W1.83 14 km ( 9 mi) SE of Covelo, CA
map1.92023/01/25 22:11:4439.704N123.135W-0.7 14 km ( 9 mi) SE of Covelo, CA
map0.52023/01/25 22:11:4038.786N122.709W2.26 4 km ( 3 mi) SSE of Cobb, CA
map0.82023/01/25 21:21:1933.484N116.409W9.45 22 km (14 mi) SSW of La Quinta, CA
map1.42023/01/25 20:54:0434.514N118.599W10.28 4 km ( 2 mi) NE of Castaic, CA
map1.92023/01/25 20:51:2933.894N118.698W14.07 15 km (10 mi) S of Malibu Beach, CA
map0.72023/01/25 20:46:2533.982N116.685W11.84 12 km ( 7 mi) NE of Cabazon, CA
map1.52023/01/25 20:44:0033.897N118.715W17.28 15 km ( 9 mi) SE of Malibu, CA
map0.22023/01/25 20:36:2838.828N122.825W1.28 8 km ( 5 mi) NW of The Geysers, CA
map1.72023/01/25 20:20:1438.384N122.398W7.24 4 km ( 2 mi) WSW of Yountville, CA
map0.82023/01/25 20:01:4138.837N122.801W2.24 7 km ( 4 mi) WNW of Cobb, CA
map0.92023/01/25 18:23:0633.142N116.501W11.97 12 km ( 7 mi) NE of Julian, CA
map-0.32023/01/25 17:49:0638.794N122.808W1.51 5 km ( 3 mi) WNW of The Geysers, CA
map1.82023/01/25 17:48:4638.794N122.806W1.43 5 km ( 3 mi) WNW of The Geysers, CA
map1.52023/01/25 17:48:4338.794N122.806W1.29 5 km ( 3 mi) WNW of The Geysers, CA
map1.02023/01/25 17:42:0536.846N121.460W5.47 5 km ( 3 mi) W of Hollister, CA
map0.92023/01/25 17:42:0334.447N119.204W8.39 4 km ( 2 mi) E of Ojai, CA
map0.42023/01/25 17:28:2638.823N122.796W2.93 6 km ( 4 mi) NW of The Geysers, CA
map1.32023/01/25 17:21:4136.783N121.484W5.1 8 km ( 5 mi) SE of San Juan Bautista, CA
map2.82023/01/25 17:11:2836.778N121.484W4.73 9 km ( 6 mi) SSE of San Juan Bautista, CA
map0.72023/01/25 17:10:2338.866N122.836W1.15 11 km ( 7 mi) WNW of Cobb, CA
map1.12023/01/25 17:03:4534.121N117.472W6.97 3 km ( 2 mi) NNW of Fontana, CA
map0.72023/01/25 16:33:5138.814N122.797W1.06 5 km ( 3 mi) NW of The Geysers, CA
map0.52023/01/25 16:24:0338.823N122.794W3.29 6 km ( 4 mi) NNW of The Geysers, CA
map1.12023/01/25 16:21:2437.108N116.956W0.0 28 km (18 mi) NW of Beatty, NV
map0.82023/01/25 16:18:1633.678N116.735W16.28 7 km ( 4 mi) SSW of Idyllwild, CA
map0.52023/01/25 16:09:0938.813N122.795W1.47 5 km ( 3 mi) NW of The Geysers, CA
map1.22023/01/25 16:04:4137.478N115.283W13.6 16 km (10 mi) NW of Alamo, NV
map0.72023/01/25 15:45:5538.835N122.813W1.51 8 km ( 5 mi) W of Cobb, CA
map1.52023/01/25 15:37:3932.842N116.096W12.9 15 km (10 mi) NW of Ocotillo, CA
map0.12023/01/25 15:36:0038.780N122.757W1.4 0 km ( 0 mi) N of The Geysers, CA
map2.62023/01/25 15:23:4340.392N125.237W9.72 85 km (53 mi) WSW of Ferndale, CA
map0.72023/01/25 15:15:3038.835N122.817W1.76 8 km ( 5 mi) W of Cobb, CA
map0.82023/01/25 15:14:5632.967N116.296W11.55 25 km (15 mi) SW of Ocotillo Wells, CA
map0.82023/01/25 15:10:4133.484N116.454W12.66 22 km (14 mi) ESE of Anza, CA
map1.42023/01/25 14:47:3236.097N117.870W4.51 9 km ( 6 mi) NE of Coso Junction, CA
map0.12023/01/25 14:39:2538.805N122.808W1.64 5 km ( 3 mi) NW of The Geysers, CA
map1.22023/01/25 14:30:1738.805N122.808W1.21 5 km ( 3 mi) NW of The Geysers, CA
map0.72023/01/25 14:29:1538.839N122.811W1.82 8 km ( 5 mi) WNW of Cobb, CA
map-0.12023/01/25 14:07:1038.787N122.761W-0.78 1 km ( 1 mi) NNW of The Geysers, CA
map0.92023/01/25 13:52:1938.821N122.797W3.22 6 km ( 4 mi) NW of The Geysers, CA
map0.62023/01/25 13:43:4936.851N121.459W6.2 5 km ( 3 mi) W of Hollister, CA
map0.52023/01/25 12:58:2638.814N122.785W1.5 5 km ( 3 mi) NNW of The Geysers, CA
map0.72023/01/25 12:52:2838.848N122.816W1.63 9 km ( 5 mi) WNW of Cobb, CA
map1.12023/01/25 12:40:3938.816N122.796W2.47 5 km ( 3 mi) NW of The Geysers, CA
map1.22023/01/25 12:39:1033.932N117.941W6.87 1 km ( 0 mi) E of La Habra, CA
map2.02023/01/25 12:22:3940.093N123.743W22.54 7 km ( 5 mi) ESE of Redway, CA
map1.62023/01/25 12:21:0038.798N122.749W1.77 2 km ( 1 mi) NNE of The Geysers, CA
map0.32023/01/25 12:12:1937.636N122.469W6.95 3 km ( 2 mi) NNE of Pacifica, CA
map1.22023/01/25 12:04:4036.289N120.866W6.28 25 km (16 mi) ENE of King City, CA
map2.42023/01/25 11:56:1937.945N118.072W0.0 69 km (43 mi) NNE of Dixon Lane-Meadow Creek, CA
map0.22023/01/25 11:30:2738.814N122.794W2.53 5 km ( 3 mi) NW of The Geysers, CA
map0.92023/01/25 11:29:0435.826N117.656W8.21 23 km (14 mi) N of Ridgecrest, CA
map2.12023/01/25 11:26:5635.582N117.610W5.76 7 km ( 5 mi) SE of Ridgecrest, CA
map1.22023/01/25 11:20:3634.447N119.209W10.96 3 km ( 2 mi) E of Ojai, CA
map0.82023/01/25 11:17:0538.815N122.796W2.56 5 km ( 3 mi) NW of The Geysers, CA
map0.82023/01/25 10:54:4233.639N116.718W13.89 10 km ( 6 mi) NNW of Anza, CA
map1.22023/01/25 10:48:3135.810N117.529W-0.75 2 km ( 1 mi) ENE of Quarry at CLC (Probable quarry explosion)
map1.32023/01/25 10:25:0537.453N115.548W12.8 35 km (22 mi) WNW of Alamo, NV
map2.22023/01/25 10:23:2938.817N122.796W2.49 6 km ( 3 mi) NW of The Geysers, CA
map1.62023/01/25 10:07:0633.891N118.712W16.39 16 km (10 mi) SE of Malibu, CA
map0.42023/01/25 10:06:2238.822N122.797W3.3 6 km ( 4 mi) NW of The Geysers, CA
map0.22023/01/25 10:04:0238.821N122.798W2.9 6 km ( 4 mi) NW of The Geysers, CA
map1.22023/01/25 09:59:3938.826N122.797W2.29 6 km ( 4 mi) W of Cobb, CA
map0.92023/01/25 09:54:4133.171N116.692W10.36 10 km ( 6 mi) SE of Lake Henshaw, CA
map0.62023/01/25 09:51:1037.078N116.265W5.8 47 km (29 mi) ENE of Beatty, NV
map0.82023/01/25 09:50:3138.821N122.796W2.81 6 km ( 4 mi) NW of The Geysers, CA
map0.62023/01/25 09:47:5738.820N122.793W2.52 6 km ( 4 mi) NNW of The Geysers, CA
map1.42023/01/25 09:46:5838.826N122.796W2.63 6 km ( 4 mi) W of Cobb, CA
map2.92023/01/25 09:43:5738.821N122.795W2.96 6 km ( 4 mi) NW of The Geysers, CA
map0.82023/01/25 09:11:5738.829N122.769W9.89 4 km ( 3 mi) W of Cobb, CA
map0.52023/01/25 09:02:1838.823N122.763W2.53 3 km ( 2 mi) W of Cobb, CA
map1.42023/01/25 08:18:1834.511N118.705W15.44 8 km ( 5 mi) WNW of Castaic, CA
map1.32023/01/25 08:05:5838.801N122.770W1.59 3 km ( 2 mi) NNW of The Geysers, CA
map1.12023/01/25 07:41:3838.826N122.853W1.99 10 km ( 6 mi) WNW of The Geysers, CA
map1.12023/01/25 07:14:3036.221N120.338W3.94 9 km ( 6 mi) NNE of Coalinga, CA
map1.12023/01/25 07:13:3436.854N121.471W7.11 6 km ( 4 mi) E of San Juan Bautista, CA
map1.22023/01/25 06:51:5236.230N120.333W10.07 10 km ( 6 mi) NNE of Coalinga, CA
map1.22023/01/25 06:30:2638.514N119.463W6.9 32 km (20 mi) SSW of Smith Valley, NV
map1.22023/01/25 06:25:5232.567N115.672W9.03 8 km ( 5 mi) W of Progreso, B.C., MX
map0.82023/01/25 06:24:2038.184N117.861W9.6 57 km (35 mi) WNW of Tonopah, NV
map1.42023/01/25 06:21:4034.444N119.192W10.48 5 km ( 3 mi) E of Ojai, CA
map0.32023/01/25 06:10:2239.195N119.715W11.7 6 km ( 4 mi) NE of Carson City, NV
map1.62023/01/25 06:05:0933.893N118.698W14.52 16 km (10 mi) S of Malibu Beach, CA
map1.62023/01/25 06:02:5533.941N117.925W6.83 2 km ( 1 mi) ENE of La Habra, CA
map1.52023/01/25 05:57:2834.035N117.246W17.92 2 km ( 1 mi) SE of Loma Linda, CA
map0.72023/01/25 05:44:1538.834N122.816W1.24 8 km ( 5 mi) NW of The Geysers, CA
map1.22023/01/25 05:43:5436.240N120.355W8.74 11 km ( 7 mi) N of Coalinga, CA
map1.72023/01/25 05:09:5240.016N120.980W16.8 9 km ( 6 mi) NNW of Quincy, CA
map1.72023/01/25 04:55:3238.598N119.422W4.8 22 km (13 mi) SSW of Smith Valley, NV
map1.12023/01/25 04:50:3838.837N122.800W1.61 7 km ( 4 mi) WNW of Cobb, CA
map1.22023/01/25 04:38:0638.582N119.440W7.3 24 km (15 mi) SSW of Smith Valley, NV
map1.32023/01/25 04:36:4638.578N119.448W8.3 25 km (15 mi) SSW of Smith Valley, NV
map-0.12023/01/25 04:35:5636.406N116.907W5.7 7 km ( 4 mi) SW of Furnace Creek, CA
map1.02023/01/25 04:10:0435.627N117.474W5.38 17 km (10 mi) SSW of Searles Valley, CA
map1.42023/01/25 03:36:2638.540N119.534W7.4 32 km (20 mi) SSW of Smith Valley, NV
map0.92023/01/25 03:27:3236.845N121.463W4.28 6 km ( 4 mi) W of Hollister, CA
map1.12023/01/25 03:24:1638.794N122.761W2.59 2 km ( 1 mi) N of The Geysers, CA
map0.82023/01/25 03:17:3038.819N122.762W1.74 3 km ( 2 mi) W of Cobb, CA
map1.22023/01/25 02:58:2538.806N122.781W2.98 4 km ( 2 mi) NW of The Geysers, CA
map2.82023/01/25 02:38:4833.898N118.696W13.44 15 km ( 9 mi) S of Malibu Beach, CA
map0.62023/01/25 02:32:2133.567N116.664W8 2 km ( 1 mi) NE of Anza, CA
map1.32023/01/25 02:25:1433.921N118.739W19.85 11 km ( 7 mi) SE of Malibu, CA
map2.92023/01/25 02:22:3233.883N118.692W10.98 17 km (10 mi) S of Malibu Beach, CA
map2.12023/01/25 02:21:1332.036N115.532W5.66 40 km (25 mi) WSW of Alberto Oviedo Mota, B.C., MX
map0.82023/01/25 02:09:0935.962N117.914W8.71 3 km ( 2 mi) NNW of Little Lake, CA
MAP3.62023/01/25 02:03:3333.886N118.703W13.83 16 km (10 mi) S of Malibu Beach, CA
MAP4.22023/01/25 02:00:5433.885N118.704W14.71 17 km (10 mi) S of Malibu Beach, CA
map1.42023/01/25 01:57:4237.507N118.786W5.84 22 km (14 mi) SE of Mammoth Lakes, CA
map0.02023/01/25 01:54:2138.838N122.800W2.08 7 km ( 4 mi) WNW of Cobb, CA
map1.02023/01/25 01:49:2637.214N117.354W1.7 63 km (39 mi) WNW of Beatty, NV
map1.02023/01/25 01:44:0537.204N117.352W6.0 62 km (39 mi) WNW of Beatty, NV
map0.62023/01/25 01:34:1238.117N118.215W8.8 58 km (36 mi) SE of Hawthorne, NV
map1.42023/01/25 01:21:4537.990N118.537W12.6 55 km (34 mi) NE of Mammoth Lakes, CA
map0.22023/01/25 01:21:2438.847N122.816W1.36 8 km ( 5 mi) WNW of Cobb, CA
map1.22023/01/25 00:35:3634.448N119.195W9.77 4 km ( 3 mi) E of Ojai, CA
map0.72023/01/25 00:22:1638.798N122.750W1.98 2 km ( 1 mi) NNE of The Geysers, CA
map1.12023/01/25 00:06:2934.803N118.925W14.5 3 km ( 2 mi) SE of Frazier Park, CA
map0.72023/01/24 23:57:5038.811N122.828W1.37 7 km ( 5 mi) WNW of The Geysers, CA
map0.52023/01/24 23:50:5437.549N118.878W6.36 13 km ( 8 mi) SE of Mammoth Lakes, CA
map2.62023/01/24 23:48:1837.548N118.876W6.66 13 km ( 8 mi) SE of Mammoth Lakes, CA
map0.42023/01/24 23:45:4338.831N122.818W1.35 8 km ( 5 mi) NW of The Geysers, CA
map1.12023/01/24 23:45:3238.770N122.737W1.13 2 km ( 1 mi) ESE of The Geysers, CA
map1.22023/01/24 23:44:4737.666N122.078W6.28 2 km ( 2 mi) N of Hayward, CA
map0.92023/01/24 23:33:1538.835N122.804W1.95 7 km ( 4 mi) WNW of Cobb, CA
map0.92023/01/24 23:26:0833.400N116.373W4.15 16 km (10 mi) N of Borrego Springs, CA